<?xml version="1.0" encoding="UTF-8" standalone="no" ?>
<gpx xmlns="http://www.topografix.com/GPX/1/1" xmlns:xsi="http://www.w3.org/2001/XMLSchema-instance" xsi:schemaLocation="http://www.topografix.com/GPX/1/1 http://www.topografix.com/GPX/1/1/gpx.xsd" version="1.1" creator="VisuGPX - https://www.visugpx.com">
  <metadata>
    <name>Vue sur Lac du Salagou Circuit à partir de Liausson</name>
  </metadata>
  <trk>
    <name><![CDATA[GPX Download: Ace flow trail – Vue sur Lac du Salagou Circuit à partir de Liausson]]></name>
    <trkseg>
      <trkpt lat="43.64375" lon="3.38266">
        <ele>141.896207</ele>
        <time>2022-08-06T12:42:20.152Z</time>
      </trkpt>
      <trkpt lat="43.64375" lon="3.38319">
        <ele>141.896207</ele>
        <time>2022-08-06T12:42:30.787Z</time>
      </trkpt>
      <trkpt lat="43.6436" lon="3.38371">
        <ele>141.896207</ele>
        <time>2022-08-06T12:42:44.822Z</time>
      </trkpt>
      <trkpt lat="43.64363" lon="3.38377">
        <ele>141.896207</ele>
        <time>2022-08-06T12:42:46.162Z</time>
      </trkpt>
      <trkpt lat="43.64351" lon="3.3839">
        <ele>142.023397</ele>
        <time>2022-08-06T12:42:52.881Z</time>
      </trkpt>
      <trkpt lat="43.64337" lon="3.38393">
        <ele>142.208132</ele>
        <time>2022-08-06T12:42:58.447Z</time>
      </trkpt>
      <trkpt lat="43.6432" lon="3.38385">
        <ele>142.456228</ele>
        <time>2022-08-06T12:43:05.217Z</time>
      </trkpt>
      <trkpt lat="43.64296" lon="3.38346">
        <ele>142.949816</ele>
        <time>2022-08-06T12:43:19.551Z</time>
      </trkpt>
      <trkpt lat="43.64284" lon="3.38313">
        <ele>143.300545</ele>
        <time>2022-08-06T12:43:29.407Z</time>
      </trkpt>
      <trkpt lat="43.64264" lon="3.38293">
        <ele>143.630261</ele>
        <time>2022-08-06T12:43:40.197Z</time>
      </trkpt>
      <trkpt lat="43.64248" lon="3.38388">
        <ele>144.279909</ele>
        <time>2022-08-06T12:43:58.012Z</time>
      </trkpt>
      <trkpt lat="43.64246" lon="3.38402">
        <ele>144.278951</ele>
        <time>2022-08-06T12:43:59.945Z</time>
      </trkpt>
      <trkpt lat="43.64232" lon="3.38511">
        <ele>144.271582</ele>
        <time>2022-08-06T12:44:16.329Z</time>
      </trkpt>
      <trkpt lat="43.64232" lon="3.38546">
        <ele>144.269234</ele>
        <time>2022-08-06T12:44:20.528Z</time>
      </trkpt>
      <trkpt lat="43.64247" lon="3.386">
        <ele>144.265433</ele>
        <time>2022-08-06T12:44:27.686Z</time>
      </trkpt>
      <trkpt lat="43.64295" lon="3.38706">
        <ele>143.387741</ele>
        <time>2022-08-06T12:44:43.204Z</time>
      </trkpt>
      <trkpt lat="43.64334" lon="3.38754">
        <ele>142.877913</ele>
        <time>2022-08-06T12:44:51.772Z</time>
      </trkpt>
      <trkpt lat="43.64339" lon="3.38772">
        <ele>142.740564</ele>
        <time>2022-08-06T12:44:54.111Z</time>
      </trkpt>
      <trkpt lat="43.64338" lon="3.3879">
        <ele>142.616826</ele>
        <time>2022-08-06T12:44:56.297Z</time>
      </trkpt>
      <trkpt lat="43.64348" lon="3.3879">
        <ele>142.521045</ele>
        <time>2022-08-06T12:44:59.144Z</time>
      </trkpt>
      <trkpt lat="43.64358" lon="3.38791">
        <ele>142.465847</ele>
        <time>2022-08-06T12:45:02.000Z</time>
      </trkpt>
      <trkpt lat="43.64371" lon="3.38753">
        <ele>142.307709</ele>
        <time>2022-08-06T12:45:11.368Z</time>
      </trkpt>
      <trkpt lat="43.64346" lon="3.3874">
        <ele>142.168457</ele>
        <time>2022-08-06T12:45:19.821Z</time>
      </trkpt>
      <trkpt lat="43.64336" lon="3.3869">
        <ele>141.979822</ele>
        <time>2022-08-06T12:45:31.326Z</time>
      </trkpt>
      <trkpt lat="43.64343" lon="3.38615">
        <ele>141.704736</ele>
        <time>2022-08-06T12:45:48.008Z</time>
      </trkpt>
      <trkpt lat="43.64338" lon="3.3859">
        <ele>141.607812</ele>
        <time>2022-08-06T12:45:53.893Z</time>
      </trkpt>
      <trkpt lat="43.64338" lon="3.38551">
        <ele>141.452786</ele>
        <time>2022-08-06T12:46:02.501Z</time>
      </trkpt>
      <trkpt lat="43.64332" lon="3.38534">
        <ele>141.375173</ele>
        <time>2022-08-06T12:46:06.755Z</time>
      </trkpt>
      <trkpt lat="43.64321" lon="3.38459">
        <ele>141.062403</ele>
        <time>2022-08-06T12:46:23.547Z</time>
      </trkpt>
      <trkpt lat="43.64344" lon="3.38441">
        <ele>140.912315</ele>
        <time>2022-08-06T12:46:31.581Z</time>
      </trkpt>
      <trkpt lat="43.64372" lon="3.38407">
        <ele>140.702855</ele>
        <time>2022-08-06T12:46:42.822Z</time>
      </trkpt>
      <trkpt lat="43.64382" lon="3.38385">
        <ele>140.599341</ele>
        <time>2022-08-06T12:46:48.360Z</time>
      </trkpt>
      <trkpt lat="43.64403" lon="3.38349">
        <ele>140.501801</ele>
        <time>2022-08-06T12:46:58.566Z</time>
      </trkpt>
      <trkpt lat="43.64411" lon="3.38306">
        <ele>140.412941</ele>
        <time>2022-08-06T12:47:08.287Z</time>
      </trkpt>
      <trkpt lat="43.64384" lon="3.38085">
        <ele>140.201904</ele>
        <time>2022-08-06T12:47:59.168Z</time>
      </trkpt>
      <trkpt lat="43.64354" lon="3.38048">
        <ele>140.300678</ele>
        <time>2022-08-06T12:48:12.947Z</time>
      </trkpt>
      <trkpt lat="43.64345" lon="3.38016">
        <ele>140.360461</ele>
        <time>2022-08-06T12:48:21.341Z</time>
      </trkpt>
      <trkpt lat="43.64352" lon="3.37974">
        <ele>140.436181</ele>
        <time>2022-08-06T12:48:31.966Z</time>
      </trkpt>
      <trkpt lat="43.64371" lon="3.37951">
        <ele>140.497236</ele>
        <time>2022-08-06T12:48:40.584Z</time>
      </trkpt>
      <trkpt lat="43.64379" lon="3.37924">
        <ele>140.51783</ele>
        <time>2022-08-06T12:48:47.749Z</time>
      </trkpt>
      <trkpt lat="43.64379" lon="3.37889">
        <ele>140.498155</ele>
        <time>2022-08-06T12:48:55.688Z</time>
      </trkpt>
      <trkpt lat="43.64358" lon="3.37874">
        <ele>140.480295</ele>
        <time>2022-08-06T12:49:03.250Z</time>
      </trkpt>
      <trkpt lat="43.64356" lon="3.37862">
        <ele>140.47291</ele>
        <time>2022-08-06T12:49:06.147Z</time>
      </trkpt>
      <trkpt lat="43.64377" lon="3.37821">
        <ele>140.44436</ele>
        <time>2022-08-06T12:49:17.775Z</time>
      </trkpt>
      <trkpt lat="43.64384" lon="3.37774">
        <ele>140.417662</ele>
        <time>2022-08-06T12:49:28.560Z</time>
      </trkpt>
      <trkpt lat="43.64388" lon="3.37767">
        <ele>140.412236</ele>
        <time>2022-08-06T12:49:30.736Z</time>
      </trkpt>
      <trkpt lat="43.64399" lon="3.37771">
        <ele>140.403772</ele>
        <time>2022-08-06T12:49:34.399Z</time>
      </trkpt>
      <trkpt lat="43.64416" lon="3.37779">
        <ele>140.389378</ele>
        <time>2022-08-06T12:49:40.021Z</time>
      </trkpt>
      <trkpt lat="43.64421" lon="3.37757">
        <ele>140.320466</ele>
        <time>2022-08-06T12:49:45.391Z</time>
      </trkpt>
      <trkpt lat="43.64416" lon="3.37727">
        <ele>140.20323</ele>
        <time>2022-08-06T12:49:51.997Z</time>
      </trkpt>
      <trkpt lat="43.64419" lon="3.37698">
        <ele>140.092108</ele>
        <time>2022-08-06T12:49:58.215Z</time>
      </trkpt>
      <trkpt lat="43.64432" lon="3.37657">
        <ele>139.91675</ele>
        <time>2022-08-06T12:50:07.843Z</time>
      </trkpt>
      <trkpt lat="43.64431" lon="3.37643">
        <ele>139.864713</ele>
        <time>2022-08-06T12:50:10.621Z</time>
      </trkpt>
      <trkpt lat="43.64431" lon="3.37608">
        <ele>139.728275</ele>
        <time>2022-08-06T12:50:18.358Z</time>
      </trkpt>
      <trkpt lat="43.64437" lon="3.37578">
        <ele>139.60952</ele>
        <time>2022-08-06T12:50:25.069Z</time>
      </trkpt>
      <trkpt lat="43.64474" lon="3.3745">
        <ele>139.83433</ele>
        <time>2022-08-06T12:50:56.263Z</time>
      </trkpt>
      <trkpt lat="43.6447" lon="3.37379">
        <ele>140.155652</ele>
        <time>2022-08-06T12:51:14.069Z</time>
      </trkpt>
      <trkpt lat="43.64428" lon="3.37307">
        <ele>140.611814</ele>
        <time>2022-08-06T12:51:39.867Z</time>
      </trkpt>
      <trkpt lat="43.64415" lon="3.3723">
        <ele>141.561136</ele>
        <time>2022-08-06T12:52:03.744Z</time>
      </trkpt>
      <trkpt lat="43.64358" lon="3.37159">
        <ele>142.827369</ele>
        <time>2022-08-06T12:52:34.347Z</time>
      </trkpt>
      <trkpt lat="43.64314" lon="3.37117">
        <ele>143.618498</ele>
        <time>2022-08-06T12:52:55.623Z</time>
      </trkpt>
      <trkpt lat="43.64302" lon="3.37069">
        <ele>143.91496</ele>
        <time>2022-08-06T12:53:10.205Z</time>
      </trkpt>
      <trkpt lat="43.64299" lon="3.37019">
        <ele>144.206406</ele>
        <time>2022-08-06T12:53:24.178Z</time>
      </trkpt>
      <trkpt lat="43.64305" lon="3.36949">
        <ele>144.612633</ele>
        <time>2022-08-06T12:53:43.066Z</time>
      </trkpt>
      <trkpt lat="43.64306" lon="3.36856">
        <ele>144.895652</ele>
        <time>2022-08-06T12:54:03.545Z</time>
      </trkpt>
      <trkpt lat="43.6431" lon="3.36835">
        <ele>144.846132</ele>
        <time>2022-08-06T12:54:07.990Z</time>
      </trkpt>
      <trkpt lat="43.64306" lon="3.36812">
        <ele>144.789489</ele>
        <time>2022-08-06T12:54:13.396Z</time>
      </trkpt>
      <trkpt lat="43.64288" lon="3.36766">
        <ele>144.66967</ele>
        <time>2022-08-06T12:54:24.691Z</time>
      </trkpt>
      <trkpt lat="43.64288" lon="3.36749">
        <ele>144.63026</ele>
        <time>2022-08-06T12:54:28.521Z</time>
      </trkpt>
      <trkpt lat="43.64302" lon="3.36697">
        <ele>144.500265</ele>
        <time>2022-08-06T12:54:40.882Z</time>
      </trkpt>
      <trkpt lat="43.64307" lon="3.36691">
        <ele>144.480443</ele>
        <time>2022-08-06T12:54:43.059Z</time>
      </trkpt>
      <trkpt lat="43.64308" lon="3.3667">
        <ele>144.430876</ele>
        <time>2022-08-06T12:54:47.992Z</time>
      </trkpt>
      <trkpt lat="43.64284" lon="3.36646">
        <ele>144.655855</ele>
        <time>2022-08-06T12:54:57.378Z</time>
      </trkpt>
      <trkpt lat="43.64278" lon="3.36528">
        <ele>145.923063</ele>
        <time>2022-08-06T12:55:26.824Z</time>
      </trkpt>
      <trkpt lat="43.6428" lon="3.36495">
        <ele>146.2754</ele>
        <time>2022-08-06T12:55:37.582Z</time>
      </trkpt>
      <trkpt lat="43.64303" lon="3.36384">
        <ele>147.699876</ele>
        <time>2022-08-06T12:56:16.989Z</time>
      </trkpt>
      <trkpt lat="43.64306" lon="3.36369">
        <ele>147.943406</ele>
        <time>2022-08-06T12:56:23.243Z</time>
      </trkpt>
      <trkpt lat="43.64294" lon="3.36332">
        <ele>148.554878</ele>
        <time>2022-08-06T12:56:37.325Z</time>
      </trkpt>
      <trkpt lat="43.64292" lon="3.36197">
        <ele>150.591815</ele>
        <time>2022-08-06T12:57:16.412Z</time>
      </trkpt>
      <trkpt lat="43.64324" lon="3.36164">
        <ele>150.479011</ele>
        <time>2022-08-06T12:57:30.489Z</time>
      </trkpt>
      <trkpt lat="43.64326" lon="3.36151">
        <ele>150.371822</ele>
        <time>2022-08-06T12:57:33.867Z</time>
      </trkpt>
      <trkpt lat="43.64372" lon="3.36124">
        <ele>149.819923</ele>
        <time>2022-08-06T12:57:42.949Z</time>
      </trkpt>
      <trkpt lat="43.64482" lon="3.36038">
        <ele>148.022524</ele>
        <time>2022-08-06T12:58:03.420Z</time>
      </trkpt>
      <trkpt lat="43.64525" lon="3.36015">
        <ele>146.982637</ele>
        <time>2022-08-06T12:58:10.501Z</time>
      </trkpt>
      <trkpt lat="43.6457" lon="3.36008">
        <ele>145.941243</ele>
        <time>2022-08-06T12:58:17.932Z</time>
      </trkpt>
      <trkpt lat="43.64591" lon="3.35975">
        <ele>145.217273</ele>
        <time>2022-08-06T12:58:23.171Z</time>
      </trkpt>
      <trkpt lat="43.64602" lon="3.35966">
        <ele>144.931456</ele>
        <time>2022-08-06T12:58:25.292Z</time>
      </trkpt>
      <trkpt lat="43.64635" lon="3.35976">
        <ele>144.468014</ele>
        <time>2022-08-06T12:58:31.032Z</time>
      </trkpt>
      <trkpt lat="43.64656" lon="3.35971">
        <ele>144.23065</ele>
        <time>2022-08-06T12:58:34.588Z</time>
      </trkpt>
      <trkpt lat="43.6469" lon="3.35966">
        <ele>143.835181</ele>
        <time>2022-08-06T12:58:40.694Z</time>
      </trkpt>
      <trkpt lat="43.647" lon="3.35957">
        <ele>143.702986</ele>
        <time>2022-08-06T12:58:42.806Z</time>
      </trkpt>
      <trkpt lat="43.64771" lon="3.35803">
        <ele>142.146444</ele>
        <time>2022-08-06T12:59:07.031Z</time>
      </trkpt>
      <trkpt lat="43.64832" lon="3.35773">
        <ele>141.334935</ele>
        <time>2022-08-06T12:59:18.421Z</time>
      </trkpt>
      <trkpt lat="43.64873" lon="3.35742">
        <ele>140.747563</ele>
        <time>2022-08-06T12:59:26.297Z</time>
      </trkpt>
      <trkpt lat="43.64896" lon="3.35721">
        <ele>140.427819</ele>
        <time>2022-08-06T12:59:31.006Z</time>
      </trkpt>
      <trkpt lat="43.64922" lon="3.35685">
        <ele>140.093876</ele>
        <time>2022-08-06T12:59:37.360Z</time>
      </trkpt>
      <trkpt lat="43.64962" lon="3.35664">
        <ele>139.707635</ele>
        <time>2022-08-06T12:59:44.616Z</time>
      </trkpt>
      <trkpt lat="43.64993" lon="3.35517">
        <ele>138.912879</ele>
        <time>2022-08-06T13:00:05.903Z</time>
      </trkpt>
      <trkpt lat="43.64981" lon="3.355">
        <ele>138.963681</ele>
        <time>2022-08-06T13:00:09.657Z</time>
      </trkpt>
      <trkpt lat="43.64932" lon="3.35476">
        <ele>139.11383</ele>
        <time>2022-08-06T13:00:21.582Z</time>
      </trkpt>
      <trkpt lat="43.64905" lon="3.35432">
        <ele>139.235189</ele>
        <time>2022-08-06T13:00:31.169Z</time>
      </trkpt>
      <trkpt lat="43.64906" lon="3.35417">
        <ele>139.265266</ele>
        <time>2022-08-06T13:00:33.446Z</time>
      </trkpt>
      <trkpt lat="43.64932" lon="3.35386">
        <ele>139.366773</ele>
        <time>2022-08-06T13:00:41.035Z</time>
      </trkpt>
      <trkpt lat="43.64938" lon="3.35365">
        <ele>139.395348</ele>
        <time>2022-08-06T13:00:44.368Z</time>
      </trkpt>
      <trkpt lat="43.64939" lon="3.35341">
        <ele>139.413842</ele>
        <time>2022-08-06T13:00:48.129Z</time>
      </trkpt>
      <trkpt lat="43.64915" lon="3.35301">
        <ele>139.453756</ele>
        <time>2022-08-06T13:00:56.188Z</time>
      </trkpt>
      <trkpt lat="43.64912" lon="3.35287">
        <ele>139.464819</ele>
        <time>2022-08-06T13:00:58.405Z</time>
      </trkpt>
      <trkpt lat="43.64912" lon="3.35263">
        <ele>139.482881</ele>
        <time>2022-08-06T13:01:02.022Z</time>
      </trkpt>
      <trkpt lat="43.64918" lon="3.35243">
        <ele>139.499653</ele>
        <time>2022-08-06T13:01:05.158Z</time>
      </trkpt>
      <trkpt lat="43.64922" lon="3.35203">
        <ele>139.530159</ele>
        <time>2022-08-06T13:01:10.801Z</time>
      </trkpt>
      <trkpt lat="43.64918" lon="3.35191">
        <ele>139.540293</ele>
        <time>2022-08-06T13:01:12.933Z</time>
      </trkpt>
      <trkpt lat="43.64879" lon="3.35171">
        <ele>139.616747</ele>
        <time>2022-08-06T13:01:21.618Z</time>
      </trkpt>
      <trkpt lat="43.64862" lon="3.35126">
        <ele>139.799277</ele>
        <time>2022-08-06T13:01:29.232Z</time>
      </trkpt>
      <trkpt lat="43.64862" lon="3.35103">
        <ele>139.882388</ele>
        <time>2022-08-06T13:01:32.537Z</time>
      </trkpt>
      <trkpt lat="43.64871" lon="3.35074">
        <ele>139.995011</ele>
        <time>2022-08-06T13:01:37.456Z</time>
      </trkpt>
      <trkpt lat="43.6487" lon="3.35061">
        <ele>140.039883</ele>
        <time>2022-08-06T13:01:39.254Z</time>
      </trkpt>
      <trkpt lat="43.64861" lon="3.3505">
        <ele>140.097801</ele>
        <time>2022-08-06T13:01:41.977Z</time>
      </trkpt>
      <trkpt lat="43.64853" lon="3.35044">
        <ele>140.143125</ele>
        <time>2022-08-06T13:01:44.427Z</time>
      </trkpt>
      <trkpt lat="43.64778" lon="3.35041">
        <ele>140.665103</ele>
        <time>2022-08-06T13:02:03.017Z</time>
      </trkpt>
      <trkpt lat="43.64755" lon="3.35025">
        <ele>141.143545</ele>
        <time>2022-08-06T13:02:09.494Z</time>
      </trkpt>
      <trkpt lat="43.6473" lon="3.35019">
        <ele>141.609375</ele>
        <time>2022-08-06T13:02:15.979Z</time>
      </trkpt>
      <trkpt lat="43.64728" lon="3.35017">
        <ele>141.663518</ele>
        <time>2022-08-06T13:02:17.133Z</time>
      </trkpt>
      <trkpt lat="43.64692" lon="3.3498">
        <ele>142.503129</ele>
        <time>2022-08-06T13:02:30.852Z</time>
      </trkpt>
      <trkpt lat="43.64711" lon="3.34923">
        <ele>143.363209</ele>
        <time>2022-08-06T13:02:50.715Z</time>
      </trkpt>
      <trkpt lat="43.64723" lon="3.34855">
        <ele>144.452361</ele>
        <time>2022-08-06T13:03:12.930Z</time>
      </trkpt>
      <trkpt lat="43.64731" lon="3.34741">
        <ele>146.479914</ele>
        <time>2022-08-06T13:03:50.292Z</time>
      </trkpt>
      <trkpt lat="43.64721" lon="3.3463">
        <ele>148.47984</ele>
        <time>2022-08-06T13:04:25.778Z</time>
      </trkpt>
      <trkpt lat="43.64727" lon="3.34597">
        <ele>149.070104</ele>
        <time>2022-08-06T13:04:36.091Z</time>
      </trkpt>
      <trkpt lat="43.64725" lon="3.34584">
        <ele>149.308616</ele>
        <time>2022-08-06T13:04:40.248Z</time>
      </trkpt>
      <trkpt lat="43.64733" lon="3.34563">
        <ele>149.710013</ele>
        <time>2022-08-06T13:04:47.013Z</time>
      </trkpt>
      <trkpt lat="43.64732" lon="3.34507">
        <ele>150.704516</ele>
        <time>2022-08-06T13:05:04.843Z</time>
      </trkpt>
      <trkpt lat="43.6474" lon="3.34359">
        <ele>153.22889</ele>
        <time>2022-08-06T13:05:53.064Z</time>
      </trkpt>
      <trkpt lat="43.64753" lon="3.34317">
        <ele>153.956196</ele>
        <time>2022-08-06T13:06:07.911Z</time>
      </trkpt>
      <trkpt lat="43.64746" lon="3.34296">
        <ele>154.323049</ele>
        <time>2022-08-06T13:06:15.483Z</time>
      </trkpt>
      <trkpt lat="43.6474" lon="3.34252">
        <ele>155.037738</ele>
        <time>2022-08-06T13:06:29.999Z</time>
      </trkpt>
      <trkpt lat="43.64745" lon="3.34222">
        <ele>155.518865</ele>
        <time>2022-08-06T13:06:39.511Z</time>
      </trkpt>
      <trkpt lat="43.64742" lon="3.34207">
        <ele>155.761182</ele>
        <time>2022-08-06T13:06:44.349Z</time>
      </trkpt>
      <trkpt lat="43.64745" lon="3.3419">
        <ele>156.032756</ele>
        <time>2022-08-06T13:06:49.606Z</time>
      </trkpt>
      <trkpt lat="43.64787" lon="3.34043">
        <ele>156.357476</ele>
        <time>2022-08-06T13:07:31.093Z</time>
      </trkpt>
      <trkpt lat="43.64818" lon="3.33917">
        <ele>155.96559</ele>
        <time>2022-08-06T13:07:58.744Z</time>
      </trkpt>
      <trkpt lat="43.64834" lon="3.33879">
        <ele>155.067317</ele>
        <time>2022-08-06T13:08:07.482Z</time>
      </trkpt>
      <trkpt lat="43.64845" lon="3.3381">
        <ele>153.633424</ele>
        <time>2022-08-06T13:08:21.019Z</time>
      </trkpt>
      <trkpt lat="43.64852" lon="3.33705">
        <ele>151.506966</ele>
        <time>2022-08-06T13:08:40.318Z</time>
      </trkpt>
      <trkpt lat="43.6486" lon="3.33663">
        <ele>150.60228</ele>
        <time>2022-08-06T13:08:48.298Z</time>
      </trkpt>
      <trkpt lat="43.64851" lon="3.33617">
        <ele>149.556456</ele>
        <time>2022-08-06T13:08:57.281Z</time>
      </trkpt>
      <trkpt lat="43.64851" lon="3.33556">
        <ele>148.229953</ele>
        <time>2022-08-06T13:09:08.706Z</time>
      </trkpt>
      <trkpt lat="43.64851" lon="3.33547">
        <ele>148.038274</ele>
        <time>2022-08-06T13:09:10.373Z</time>
      </trkpt>
      <trkpt lat="43.64842" lon="3.33462">
        <ele>146.162349</ele>
        <time>2022-08-06T13:09:26.724Z</time>
      </trkpt>
      <trkpt lat="43.64842" lon="3.33455">
        <ele>146.001052</ele>
        <time>2022-08-06T13:09:28.105Z</time>
      </trkpt>
      <trkpt lat="43.64836" lon="3.33287">
        <ele>143.253503</ele>
        <time>2022-08-06T13:10:00.627Z</time>
      </trkpt>
      <trkpt lat="43.64832" lon="3.33261">
        <ele>142.83381</ele>
        <time>2022-08-06T13:10:05.919Z</time>
      </trkpt>
      <trkpt lat="43.64842" lon="3.33183">
        <ele>141.737644</ele>
        <time>2022-08-06T13:10:21.834Z</time>
      </trkpt>
      <trkpt lat="43.6482" lon="3.33125">
        <ele>141.547396</ele>
        <time>2022-08-06T13:10:35.279Z</time>
      </trkpt>
      <trkpt lat="43.6478" lon="3.33096">
        <ele>141.367237</ele>
        <time>2022-08-06T13:10:48.477Z</time>
      </trkpt>
      <trkpt lat="43.64776" lon="3.33067">
        <ele>141.282448</ele>
        <time>2022-08-06T13:10:54.938Z</time>
      </trkpt>
      <trkpt lat="43.64714" lon="3.32992">
        <ele>141.462409</ele>
        <time>2022-08-06T13:11:25.649Z</time>
      </trkpt>
      <trkpt lat="43.6469" lon="3.32989">
        <ele>141.837632</ele>
        <time>2022-08-06T13:11:35.304Z</time>
      </trkpt>
      <trkpt lat="43.64644" lon="3.33012">
        <ele>142.608016</ele>
        <time>2022-08-06T13:11:55.455Z</time>
      </trkpt>
      <trkpt lat="43.6463" lon="3.33008">
        <ele>142.839628</ele>
        <time>2022-08-06T13:12:01.721Z</time>
      </trkpt>
      <trkpt lat="43.64616" lon="3.33012">
        <ele>143.057289</ele>
        <time>2022-08-06T13:12:06.898Z</time>
      </trkpt>
      <trkpt lat="43.64577" lon="3.32983">
        <ele>143.767692</ele>
        <time>2022-08-06T13:12:24.873Z</time>
      </trkpt>
      <trkpt lat="43.64553" lon="3.32946">
        <ele>144.100952</ele>
        <time>2022-08-06T13:12:39.083Z</time>
      </trkpt>
      <trkpt lat="43.64551" lon="3.32938">
        <ele>144.146534</ele>
        <time>2022-08-06T13:12:41.674Z</time>
      </trkpt>
      <trkpt lat="43.64516" lon="3.32898">
        <ele>144.473349</ele>
        <time>2022-08-06T13:12:58.686Z</time>
      </trkpt>
      <trkpt lat="43.64482" lon="3.32845">
        <ele>144.841241</ele>
        <time>2022-08-06T13:13:15.990Z</time>
      </trkpt>
      <trkpt lat="43.64464" lon="3.32831">
        <ele>144.993221</ele>
        <time>2022-08-06T13:13:22.877Z</time>
      </trkpt>
      <trkpt lat="43.64449" lon="3.3279">
        <ele>145.213112</ele>
        <time>2022-08-06T13:13:33.578Z</time>
      </trkpt>
      <trkpt lat="43.64435" lon="3.32784">
        <ele>145.254848</ele>
        <time>2022-08-06T13:13:37.973Z</time>
      </trkpt>
      <trkpt lat="43.64408" lon="3.3279">
        <ele>145.336602</ele>
        <time>2022-08-06T13:13:46.778Z</time>
      </trkpt>
      <trkpt lat="43.64374" lon="3.32769">
        <ele>145.448577</ele>
        <time>2022-08-06T13:13:59.203Z</time>
      </trkpt>
      <trkpt lat="43.64336" lon="3.32759">
        <ele>145.563987</ele>
        <time>2022-08-06T13:14:12.775Z</time>
      </trkpt>
      <trkpt lat="43.64316" lon="3.32779">
        <ele>145.63902</ele>
        <time>2022-08-06T13:14:21.505Z</time>
      </trkpt>
      <trkpt lat="43.6429" lon="3.32764">
        <ele>145.721312</ele>
        <time>2022-08-06T13:14:30.540Z</time>
      </trkpt>
      <trkpt lat="43.64273" lon="3.32743">
        <ele>145.678592</ele>
        <time>2022-08-06T13:14:37.859Z</time>
      </trkpt>
      <trkpt lat="43.64257" lon="3.3274">
        <ele>145.629551</ele>
        <time>2022-08-06T13:14:43.119Z</time>
      </trkpt>
      <trkpt lat="43.64245" lon="3.32727">
        <ele>145.582304</ele>
        <time>2022-08-06T13:14:47.851Z</time>
      </trkpt>
      <trkpt lat="43.64221" lon="3.3272">
        <ele>145.506964</ele>
        <time>2022-08-06T13:14:55.750Z</time>
      </trkpt>
      <trkpt lat="43.64216" lon="3.32724">
        <ele>145.488766</ele>
        <time>2022-08-06T13:14:57.570Z</time>
      </trkpt>
      <trkpt lat="43.64202" lon="3.32714">
        <ele>145.441342</ele>
        <time>2022-08-06T13:15:02.389Z</time>
      </trkpt>
      <trkpt lat="43.64193" lon="3.32693">
        <ele>145.387019</ele>
        <time>2022-08-06T13:15:07.811Z</time>
      </trkpt>
      <trkpt lat="43.64195" lon="3.32684">
        <ele>145.364269</ele>
        <time>2022-08-06T13:15:09.891Z</time>
      </trkpt>
      <trkpt lat="43.64184" lon="3.32651">
        <ele>145.285628</ele>
        <time>2022-08-06T13:15:17.554Z</time>
      </trkpt>
      <trkpt lat="43.64223" lon="3.32498">
        <ele>145.280739</ele>
        <time>2022-08-06T13:15:52.888Z</time>
      </trkpt>
      <trkpt lat="43.64225" lon="3.32491">
        <ele>145.286853</ele>
        <time>2022-08-06T13:15:54.257Z</time>
      </trkpt>
      <trkpt lat="43.64228" lon="3.32493">
        <ele>145.29099</ele>
        <time>2022-08-06T13:15:54.993Z</time>
      </trkpt>
      <trkpt lat="43.64266" lon="3.32381">
        <ele>145.45275</ele>
        <time>2022-08-06T13:16:17.570Z</time>
      </trkpt>
      <trkpt lat="43.64301" lon="3.32333">
        <ele>146.499866</ele>
        <time>2022-08-06T13:16:32.124Z</time>
      </trkpt>
      <trkpt lat="43.64313" lon="3.32302">
        <ele>147.049848</ele>
        <time>2022-08-06T13:16:40.918Z</time>
      </trkpt>
      <trkpt lat="43.64316" lon="3.32234">
        <ele>148.118589</ele>
        <time>2022-08-06T13:16:58.637Z</time>
      </trkpt>
      <trkpt lat="43.64325" lon="3.32169">
        <ele>149.142157</ele>
        <time>2022-08-06T13:17:14.665Z</time>
      </trkpt>
      <trkpt lat="43.64313" lon="3.32081">
        <ele>150.356086</ele>
        <time>2022-08-06T13:17:35.553Z</time>
      </trkpt>
      <trkpt lat="43.64317" lon="3.32057">
        <ele>150.691206</ele>
        <time>2022-08-06T13:17:41.196Z</time>
      </trkpt>
      <trkpt lat="43.64335" lon="3.32012">
        <ele>151.373485</ele>
        <time>2022-08-06T13:17:52.187Z</time>
      </trkpt>
      <trkpt lat="43.6434" lon="3.3198">
        <ele>151.816886</ele>
        <time>2022-08-06T13:17:58.921Z</time>
      </trkpt>
      <trkpt lat="43.64336" lon="3.31929">
        <ele>152.498473</ele>
        <time>2022-08-06T13:18:08.820Z</time>
      </trkpt>
      <trkpt lat="43.64385" lon="3.31786">
        <ele>154.967103</ele>
        <time>2022-08-06T13:18:45.468Z</time>
      </trkpt>
      <trkpt lat="43.64382" lon="3.31776">
        <ele>155.136908</ele>
        <time>2022-08-06T13:18:48.316Z</time>
      </trkpt>
      <trkpt lat="43.64364" lon="3.31764">
        <ele>155.559227</ele>
        <time>2022-08-06T13:18:53.965Z</time>
      </trkpt>
      <trkpt lat="43.64358" lon="3.31745">
        <ele>155.889014</ele>
        <time>2022-08-06T13:18:59.914Z</time>
      </trkpt>
      <trkpt lat="43.64382" lon="3.3166">
        <ele>157.49129</ele>
        <time>2022-08-06T13:19:22.210Z</time>
      </trkpt>
      <trkpt lat="43.64388" lon="3.31604">
        <ele>158.53539</ele>
        <time>2022-08-06T13:19:36.631Z</time>
      </trkpt>
      <trkpt lat="43.64409" lon="3.31522">
        <ele>160.174187</ele>
        <time>2022-08-06T13:19:59.245Z</time>
      </trkpt>
      <trkpt lat="43.64407" lon="3.3145">
        <ele>161.482058</ele>
        <time>2022-08-06T13:20:15.698Z</time>
      </trkpt>
      <trkpt lat="43.64395" lon="3.31339">
        <ele>163.473739</ele>
        <time>2022-08-06T13:20:41.896Z</time>
      </trkpt>
      <trkpt lat="43.6433" lon="3.31191">
        <ele>166.546</ele>
        <time>2022-08-06T13:21:26.115Z</time>
      </trkpt>
      <trkpt lat="43.64272" lon="3.30976">
        <ele>170.598259</ele>
        <time>2022-08-06T13:22:21.730Z</time>
      </trkpt>
      <trkpt lat="43.64271" lon="3.3083">
        <ele>172.874933</ele>
        <time>2022-08-06T13:22:55.184Z</time>
      </trkpt>
      <trkpt lat="43.64256" lon="3.30811">
        <ele>173.320274</ele>
        <time>2022-08-06T13:23:01.329Z</time>
      </trkpt>
      <trkpt lat="43.64245" lon="3.30777">
        <ele>173.927237</ele>
        <time>2022-08-06T13:23:09.857Z</time>
      </trkpt>
      <trkpt lat="43.64237" lon="3.30698">
        <ele>175.629814</ele>
        <time>2022-08-06T13:23:27.569Z</time>
      </trkpt>
      <trkpt lat="43.64254" lon="3.30663">
        <ele>176.512185</ele>
        <time>2022-08-06T13:23:37.097Z</time>
      </trkpt>
      <trkpt lat="43.64247" lon="3.30652">
        <ele>176.821224</ele>
        <time>2022-08-06T13:23:41.957Z</time>
      </trkpt>
      <trkpt lat="43.64234" lon="3.3052">
        <ele>179.963778</ele>
        <time>2022-08-06T13:24:15.774Z</time>
      </trkpt>
      <trkpt lat="43.64224" lon="3.30476">
        <ele>181.519993</ele>
        <time>2022-08-06T13:24:29.647Z</time>
      </trkpt>
      <trkpt lat="43.64219" lon="3.30374">
        <ele>185.010115</ele>
        <time>2022-08-06T13:25:03.039Z</time>
      </trkpt>
      <trkpt lat="43.64225" lon="3.30332">
        <ele>186.469546</ele>
        <time>2022-08-06T13:25:16.404Z</time>
      </trkpt>
      <trkpt lat="43.64219" lon="3.30309">
        <ele>187.301446</ele>
        <time>2022-08-06T13:25:24.559Z</time>
      </trkpt>
      <trkpt lat="43.64217" lon="3.30301">
        <ele>187.56428</ele>
        <time>2022-08-06T13:25:27.599Z</time>
      </trkpt>
      <trkpt lat="43.64212" lon="3.30243">
        <ele>189.679602</ele>
        <time>2022-08-06T13:25:52.278Z</time>
      </trkpt>
      <trkpt lat="43.64213" lon="3.30198">
        <ele>191.277731</ele>
        <time>2022-08-06T13:26:11.225Z</time>
      </trkpt>
      <trkpt lat="43.64219" lon="3.3014">
        <ele>193.375408</ele>
        <time>2022-08-06T13:26:35.915Z</time>
      </trkpt>
      <trkpt lat="43.64234" lon="3.30079">
        <ele>195.67481</ele>
        <time>2022-08-06T13:27:02.491Z</time>
      </trkpt>
      <trkpt lat="43.64233" lon="3.30002">
        <ele>197.972997</ele>
        <time>2022-08-06T13:27:30.743Z</time>
      </trkpt>
      <trkpt lat="43.6422" lon="3.2989">
        <ele>201.062621</ele>
        <time>2022-08-06T13:28:11.524Z</time>
      </trkpt>
      <trkpt lat="43.64219" lon="3.29819">
        <ele>202.974293</ele>
        <time>2022-08-06T13:28:37.479Z</time>
      </trkpt>
      <trkpt lat="43.64199" lon="3.29792">
        <ele>204.124667</ele>
        <time>2022-08-06T13:28:51.567Z</time>
      </trkpt>
      <trkpt lat="43.64189" lon="3.29755">
        <ele>205.292231</ele>
        <time>2022-08-06T13:29:05.412Z</time>
      </trkpt>
      <trkpt lat="43.64203" lon="3.29705">
        <ele>206.916657</ele>
        <time>2022-08-06T13:29:25.649Z</time>
      </trkpt>
      <trkpt lat="43.64207" lon="3.29673">
        <ele>207.894957</ele>
        <time>2022-08-06T13:29:38.213Z</time>
      </trkpt>
      <trkpt lat="43.64193" lon="3.2956">
        <ele>211.222236</ele>
        <time>2022-08-06T13:30:23.481Z</time>
      </trkpt>
      <trkpt lat="43.64194" lon="3.29494">
        <ele>212.852671</ele>
        <time>2022-08-06T13:30:49.930Z</time>
      </trkpt>
      <trkpt lat="43.64188" lon="3.29482">
        <ele>213.20033</ele>
        <time>2022-08-06T13:30:53.905Z</time>
      </trkpt>
      <trkpt lat="43.64176" lon="3.29452">
        <ele>214.03656</ele>
        <time>2022-08-06T13:31:03.763Z</time>
      </trkpt>
      <trkpt lat="43.64168" lon="3.29405">
        <ele>215.246411</ele>
        <time>2022-08-06T13:31:16.836Z</time>
      </trkpt>
      <trkpt lat="43.64167" lon="3.29344">
        <ele>216.73119</ele>
        <time>2022-08-06T13:31:31.210Z</time>
      </trkpt>
      <trkpt lat="43.64158" lon="3.29264">
        <ele>216.109605</ele>
        <time>2022-08-06T13:31:50.105Z</time>
      </trkpt>
      <trkpt lat="43.64157" lon="3.29237">
        <ele>215.851608</ele>
        <time>2022-08-06T13:31:55.789Z</time>
      </trkpt>
      <trkpt lat="43.64163" lon="3.29181">
        <ele>215.295801</ele>
        <time>2022-08-06T13:32:07.126Z</time>
      </trkpt>
      <trkpt lat="43.64159" lon="3.29149">
        <ele>214.985584</ele>
        <time>2022-08-06T13:32:13.705Z</time>
      </trkpt>
      <trkpt lat="43.64158" lon="3.29131">
        <ele>214.803903</ele>
        <time>2022-08-06T13:32:16.946Z</time>
      </trkpt>
      <trkpt lat="43.64118" lon="3.2905">
        <ele>212.81047</ele>
        <time>2022-08-06T13:32:34.819Z</time>
      </trkpt>
      <trkpt lat="43.64124" lon="3.29009">
        <ele>211.670404</ele>
        <time>2022-08-06T13:32:42.359Z</time>
      </trkpt>
      <trkpt lat="43.64147" lon="3.28973">
        <ele>210.359397</ele>
        <time>2022-08-06T13:32:50.940Z</time>
      </trkpt>
      <trkpt lat="43.64149" lon="3.28969">
        <ele>210.22244</ele>
        <time>2022-08-06T13:32:51.774Z</time>
      </trkpt>
      <trkpt lat="43.64152" lon="3.28958">
        <ele>209.89926</ele>
        <time>2022-08-06T13:32:53.870Z</time>
      </trkpt>
      <trkpt lat="43.64147" lon="3.28947">
        <ele>209.524592</ele>
        <time>2022-08-06T13:32:56.453Z</time>
      </trkpt>
      <trkpt lat="43.64121" lon="3.2894">
        <ele>208.534438</ele>
        <time>2022-08-06T13:33:03.295Z</time>
      </trkpt>
      <trkpt lat="43.64103" lon="3.28973">
        <ele>207.38698</ele>
        <time>2022-08-06T13:33:11.034Z</time>
      </trkpt>
      <trkpt lat="43.64091" lon="3.28982">
        <ele>206.884074</ele>
        <time>2022-08-06T13:33:14.443Z</time>
      </trkpt>
      <trkpt lat="43.64015" lon="3.29012">
        <ele>203.913564</ele>
        <time>2022-08-06T13:33:34.351Z</time>
      </trkpt>
      <trkpt lat="43.63942" lon="3.29007">
        <ele>201.147835</ele>
        <time>2022-08-06T13:33:52.803Z</time>
      </trkpt>
      <trkpt lat="43.63878" lon="3.29006">
        <ele>198.322011</ele>
        <time>2022-08-06T13:34:08.601Z</time>
      </trkpt>
      <trkpt lat="43.63869" lon="3.29011">
        <ele>197.899324</ele>
        <time>2022-08-06T13:34:10.896Z</time>
      </trkpt>
      <trkpt lat="43.63857" lon="3.2904">
        <ele>196.803855</ele>
        <time>2022-08-06T13:34:16.819Z</time>
      </trkpt>
      <trkpt lat="43.63852" lon="3.2905">
        <ele>196.431772</ele>
        <time>2022-08-06T13:34:18.821Z</time>
      </trkpt>
      <trkpt lat="43.63796" lon="3.29119">
        <ele>193.034812</ele>
        <time>2022-08-06T13:34:37.350Z</time>
      </trkpt>
      <trkpt lat="43.63766" lon="3.29098">
        <ele>191.46553</ele>
        <time>2022-08-06T13:34:41.954Z</time>
      </trkpt>
      <trkpt lat="43.63725" lon="3.291">
        <ele>189.56928</ele>
        <time>2022-08-06T13:34:47.465Z</time>
      </trkpt>
      <trkpt lat="43.63689" lon="3.29111">
        <ele>187.848514</ele>
        <time>2022-08-06T13:34:52.432Z</time>
      </trkpt>
      <trkpt lat="43.63624" lon="3.29075">
        <ele>184.555473</ele>
        <time>2022-08-06T13:35:01.991Z</time>
      </trkpt>
      <trkpt lat="43.63537" lon="3.29066">
        <ele>181.150517</ele>
        <time>2022-08-06T13:35:13.547Z</time>
      </trkpt>
      <trkpt lat="43.63511" lon="3.29038">
        <ele>179.8907</ele>
        <time>2022-08-06T13:35:18.042Z</time>
      </trkpt>
      <trkpt lat="43.63498" lon="3.29035">
        <ele>179.394349</ele>
        <time>2022-08-06T13:35:19.924Z</time>
      </trkpt>
      <trkpt lat="43.63436" lon="3.29037">
        <ele>177.403027</ele>
        <time>2022-08-06T13:35:29.043Z</time>
      </trkpt>
      <trkpt lat="43.63422" lon="3.28938">
        <ele>177.194617</ele>
        <time>2022-08-06T13:35:41.206Z</time>
      </trkpt>
      <trkpt lat="43.6341" lon="3.28886">
        <ele>177.081942</ele>
        <time>2022-08-06T13:35:49.232Z</time>
      </trkpt>
      <trkpt lat="43.6337" lon="3.28822">
        <ele>176.995881</ele>
        <time>2022-08-06T13:36:05.925Z</time>
      </trkpt>
      <trkpt lat="43.63332" lon="3.28705">
        <ele>178.166287</ele>
        <time>2022-08-06T13:36:30.858Z</time>
      </trkpt>
      <trkpt lat="43.63302" lon="3.28651">
        <ele>178.784571</ele>
        <time>2022-08-06T13:36:42.411Z</time>
      </trkpt>
      <trkpt lat="43.63221" lon="3.28511">
        <ele>180.115687</ele>
        <time>2022-08-06T13:37:13.301Z</time>
      </trkpt>
      <trkpt lat="43.63164" lon="3.28432">
        <ele>180.882017</ele>
        <time>2022-08-06T13:37:32.855Z</time>
      </trkpt>
      <trkpt lat="43.6313" lon="3.28355">
        <ele>181.259806</ele>
        <time>2022-08-06T13:37:48.482Z</time>
      </trkpt>
      <trkpt lat="43.63122" lon="3.28326">
        <ele>181.381852</ele>
        <time>2022-08-06T13:37:53.790Z</time>
      </trkpt>
      <trkpt lat="43.63127" lon="3.28083">
        <ele>182.326676</ele>
        <time>2022-08-06T13:38:29.366Z</time>
      </trkpt>
      <trkpt lat="43.63107" lon="3.27995">
        <ele>182.665504</ele>
        <time>2022-08-06T13:38:43.366Z</time>
      </trkpt>
      <trkpt lat="43.63128" lon="3.27908">
        <ele>183.460875</ele>
        <time>2022-08-06T13:39:00.187Z</time>
      </trkpt>
      <trkpt lat="43.63132" lon="3.27893">
        <ele>183.664087</ele>
        <time>2022-08-06T13:39:03.224Z</time>
      </trkpt>
      <trkpt lat="43.63131" lon="3.27847">
        <ele>184.271817</ele>
        <time>2022-08-06T13:39:13.022Z</time>
      </trkpt>
      <trkpt lat="43.63122" lon="3.27776">
        <ele>185.199439</ele>
        <time>2022-08-06T13:39:27.910Z</time>
      </trkpt>
      <trkpt lat="43.63099" lon="3.27716">
        <ele>186.095098</ele>
        <time>2022-08-06T13:39:43.100Z</time>
      </trkpt>
      <trkpt lat="43.63084" lon="3.27678">
        <ele>186.780572</ele>
        <time>2022-08-06T13:39:52.599Z</time>
      </trkpt>
      <trkpt lat="43.63142" lon="3.27498">
        <ele>189.863929</ele>
        <time>2022-08-06T13:40:34.322Z</time>
      </trkpt>
      <trkpt lat="43.63162" lon="3.27469">
        <ele>190.867844</ele>
        <time>2022-08-06T13:40:46.334Z</time>
      </trkpt>
      <trkpt lat="43.63208" lon="3.27372">
        <ele>194.001236</ele>
        <time>2022-08-06T13:41:28.922Z</time>
      </trkpt>
      <trkpt lat="43.63215" lon="3.27314">
        <ele>195.559635</ele>
        <time>2022-08-06T13:41:51.471Z</time>
      </trkpt>
      <trkpt lat="43.63231" lon="3.27255">
        <ele>197.292195</ele>
        <time>2022-08-06T13:42:17.260Z</time>
      </trkpt>
      <trkpt lat="43.63234" lon="3.27205">
        <ele>198.66117</ele>
        <time>2022-08-06T13:42:36.987Z</time>
      </trkpt>
      <trkpt lat="43.63231" lon="3.27171">
        <ele>199.62169</ele>
        <time>2022-08-06T13:42:50.377Z</time>
      </trkpt>
      <trkpt lat="43.63184" lon="3.26967">
        <ele>204.068492</ele>
        <time>2022-08-06T13:44:05.751Z</time>
      </trkpt>
      <trkpt lat="43.63162" lon="3.26953">
        <ele>204.321012</ele>
        <time>2022-08-06T13:44:13.474Z</time>
      </trkpt>
      <trkpt lat="43.63162" lon="3.26876">
        <ele>204.91593</ele>
        <time>2022-08-06T13:44:25.129Z</time>
      </trkpt>
      <trkpt lat="43.63154" lon="3.26763">
        <ele>205.122162</ele>
        <time>2022-08-06T13:44:39.977Z</time>
      </trkpt>
      <trkpt lat="43.63158" lon="3.26731">
        <ele>204.920617</ele>
        <time>2022-08-06T13:44:44.094Z</time>
      </trkpt>
      <trkpt lat="43.63169" lon="3.26678">
        <ele>204.576038</ele>
        <time>2022-08-06T13:44:51.055Z</time>
      </trkpt>
      <trkpt lat="43.63209" lon="3.26579">
        <ele>203.876695</ele>
        <time>2022-08-06T13:45:04.300Z</time>
      </trkpt>
      <trkpt lat="43.63223" lon="3.26552">
        <ele>203.915718</ele>
        <time>2022-08-06T13:45:08.429Z</time>
      </trkpt>
      <trkpt lat="43.63224" lon="3.2655">
        <ele>203.918149</ele>
        <time>2022-08-06T13:45:08.747Z</time>
      </trkpt>
      <trkpt lat="43.63227" lon="3.26531">
        <ele>203.940595</ele>
        <time>2022-08-06T13:45:11.284Z</time>
      </trkpt>
      <trkpt lat="43.63225" lon="3.26511">
        <ele>203.964703</ele>
        <time>2022-08-06T13:45:14.163Z</time>
      </trkpt>
      <trkpt lat="43.63197" lon="3.26437">
        <ele>204.062543</ele>
        <time>2022-08-06T13:45:25.935Z</time>
      </trkpt>
      <trkpt lat="43.63179" lon="3.26393">
        <ele>204.121466</ele>
        <time>2022-08-06T13:45:34.167Z</time>
      </trkpt>
      <trkpt lat="43.6316" lon="3.26335">
        <ele>204.514414</ele>
        <time>2022-08-06T13:45:45.864Z</time>
      </trkpt>
      <trkpt lat="43.63161" lon="3.26297">
        <ele>205.048162</ele>
        <time>2022-08-06T13:45:52.971Z</time>
      </trkpt>
      <trkpt lat="43.63168" lon="3.2627">
        <ele>205.464876</ele>
        <time>2022-08-06T13:45:59.394Z</time>
      </trkpt>
      <trkpt lat="43.63196" lon="3.26228">
        <ele>206.257647</ele>
        <time>2022-08-06T13:46:11.832Z</time>
      </trkpt>
      <trkpt lat="43.63277" lon="3.26172">
        <ele>208.065682</ele>
        <time>2022-08-06T13:46:39.639Z</time>
      </trkpt>
      <trkpt lat="43.63392" lon="3.26117">
        <ele>210.745051</ele>
        <time>2022-08-06T13:47:16.348Z</time>
      </trkpt>
      <trkpt lat="43.63479" lon="3.26062">
        <ele>212.641285</ele>
        <time>2022-08-06T13:47:44.683Z</time>
      </trkpt>
      <trkpt lat="43.63577" lon="3.26015">
        <ele>214.553471</ele>
        <time>2022-08-06T13:48:14.787Z</time>
      </trkpt>
      <trkpt lat="43.63638" lon="3.25975">
        <ele>215.473586</ele>
        <time>2022-08-06T13:48:31.606Z</time>
      </trkpt>
      <trkpt lat="43.63658" lon="3.25955">
        <ele>215.760285</ele>
        <time>2022-08-06T13:48:37.379Z</time>
      </trkpt>
      <trkpt lat="43.63706" lon="3.25862">
        <ele>216.73257</ele>
        <time>2022-08-06T13:48:57.146Z</time>
      </trkpt>
      <trkpt lat="43.6373" lon="3.25835">
        <ele>217.137686</ele>
        <time>2022-08-06T13:49:04.504Z</time>
      </trkpt>
      <trkpt lat="43.63864" lon="3.25795">
        <ele>219.845611</ele>
        <time>2022-08-06T13:49:43.781Z</time>
      </trkpt>
      <trkpt lat="43.63948" lon="3.25753">
        <ele>221.961332</ele>
        <time>2022-08-06T13:50:13.304Z</time>
      </trkpt>
      <trkpt lat="43.63978" lon="3.25812">
        <ele>223.359272</ele>
        <time>2022-08-06T13:50:31.424Z</time>
      </trkpt>
      <trkpt lat="43.63989" lon="3.25822">
        <ele>223.70504</ele>
        <time>2022-08-06T13:50:35.773Z</time>
      </trkpt>
      <trkpt lat="43.64053" lon="3.25828">
        <ele>225.429269</ele>
        <time>2022-08-06T13:50:57.489Z</time>
      </trkpt>
      <trkpt lat="43.64096" lon="3.25845">
        <ele>226.658984</ele>
        <time>2022-08-06T13:51:11.495Z</time>
      </trkpt>
      <trkpt lat="43.64112" lon="3.25855">
        <ele>227.150403</ele>
        <time>2022-08-06T13:51:17.042Z</time>
      </trkpt>
      <trkpt lat="43.64147" lon="3.25898">
        <ele>228.469851</ele>
        <time>2022-08-06T13:51:31.812Z</time>
      </trkpt>
      <trkpt lat="43.64159" lon="3.25906">
        <ele>228.827023</ele>
        <time>2022-08-06T13:51:36.239Z</time>
      </trkpt>
      <trkpt lat="43.64186" lon="3.25911">
        <ele>229.582349</ele>
        <time>2022-08-06T13:51:45.549Z</time>
      </trkpt>
      <trkpt lat="43.64206" lon="3.25907">
        <ele>230.16032</ele>
        <time>2022-08-06T13:51:53.148Z</time>
      </trkpt>
      <trkpt lat="43.64227" lon="3.25871">
        <ele>231.759805</ele>
        <time>2022-08-06T13:52:06.361Z</time>
      </trkpt>
      <trkpt lat="43.64243" lon="3.25861">
        <ele>232.658119</ele>
        <time>2022-08-06T13:52:13.520Z</time>
      </trkpt>
      <trkpt lat="43.6425" lon="3.25862">
        <ele>233.073829</ele>
        <time>2022-08-06T13:52:17.069Z</time>
      </trkpt>
      <trkpt lat="43.64275" lon="3.25872">
        <ele>234.469811</ele>
        <time>2022-08-06T13:52:29.115Z</time>
      </trkpt>
      <trkpt lat="43.64345" lon="3.25925">
        <ele>238.76217</ele>
        <time>2022-08-06T13:53:05.912Z</time>
      </trkpt>
      <trkpt lat="43.64397" lon="3.25956">
        <ele>243.2719</ele>
        <time>2022-08-06T13:53:38.614Z</time>
      </trkpt>
      <trkpt lat="43.64471" lon="3.25959">
        <ele>250.663444</ele>
        <time>2022-08-06T13:54:30.835Z</time>
      </trkpt>
      <trkpt lat="43.64496" lon="3.25971">
        <ele>253.262351</ele>
        <time>2022-08-06T13:54:49.401Z</time>
      </trkpt>
      <trkpt lat="43.64523" lon="3.25971">
        <ele>256.004163</ele>
        <time>2022-08-06T13:55:11.098Z</time>
      </trkpt>
      <trkpt lat="43.64548" lon="3.25928">
        <ele>260.254022</ele>
        <time>2022-08-06T13:55:43.578Z</time>
      </trkpt>
      <trkpt lat="43.6456" lon="3.25934">
        <ele>261.660893</ele>
        <time>2022-08-06T13:55:53.910Z</time>
      </trkpt>
      <trkpt lat="43.64589" lon="3.25965">
        <ele>265.883989</ele>
        <time>2022-08-06T13:56:25.782Z</time>
      </trkpt>
      <trkpt lat="43.64599" lon="3.2596">
        <ele>267.056668</ele>
        <time>2022-08-06T13:56:34.849Z</time>
      </trkpt>
      <trkpt lat="43.64623" lon="3.25929">
        <ele>270.87666</ele>
        <time>2022-08-06T13:57:05.211Z</time>
      </trkpt>
      <trkpt lat="43.64653" lon="3.25913">
        <ele>274.511368</ele>
        <time>2022-08-06T13:57:31.248Z</time>
      </trkpt>
      <trkpt lat="43.64717" lon="3.2589">
        <ele>280.201338</ele>
        <time>2022-08-06T13:58:07.675Z</time>
      </trkpt>
      <trkpt lat="43.64756" lon="3.25893">
        <ele>282.427771</ele>
        <time>2022-08-06T13:58:26.924Z</time>
      </trkpt>
      <trkpt lat="43.64756" lon="3.25886">
        <ele>282.717831</ele>
        <time>2022-08-06T13:58:29.675Z</time>
      </trkpt>
      <trkpt lat="43.64745" lon="3.25876">
        <ele>283.478715</ele>
        <time>2022-08-06T13:58:36.003Z</time>
      </trkpt>
      <trkpt lat="43.64655" lon="3.2585">
        <ele>288.777018</ele>
        <time>2022-08-06T13:59:10.994Z</time>
      </trkpt>
      <trkpt lat="43.64646" lon="3.25829">
        <ele>290.741523</ele>
        <time>2022-08-06T13:59:19.243Z</time>
      </trkpt>
      <trkpt lat="43.64656" lon="3.2582">
        <ele>292.055991</ele>
        <time>2022-08-06T13:59:25.116Z</time>
      </trkpt>
      <trkpt lat="43.64694" lon="3.25805">
        <ele>296.563725</ele>
        <time>2022-08-06T13:59:51.164Z</time>
      </trkpt>
      <trkpt lat="43.64761" lon="3.25763">
        <ele>304.91196</ele>
        <time>2022-08-06T14:00:55.585Z</time>
      </trkpt>
      <trkpt lat="43.6482" lon="3.25743">
        <ele>312.612873</ele>
        <time>2022-08-06T14:01:57.515Z</time>
      </trkpt>
      <trkpt lat="43.64848" lon="3.25722">
        <ele>317.261973</ele>
        <time>2022-08-06T14:02:29.303Z</time>
      </trkpt>
      <trkpt lat="43.64861" lon="3.2573">
        <ele>319.289655</ele>
        <time>2022-08-06T14:02:41.364Z</time>
      </trkpt>
      <trkpt lat="43.64891" lon="3.25795">
        <ele>327.449452</ele>
        <time>2022-08-06T14:03:38.665Z</time>
      </trkpt>
      <trkpt lat="43.64934" lon="3.25832">
        <ele>334.750564</ele>
        <time>2022-08-06T14:04:23.445Z</time>
      </trkpt>
      <trkpt lat="43.64956" lon="3.25883">
        <ele>339.639968</ele>
        <time>2022-08-06T14:04:53.677Z</time>
      </trkpt>
      <trkpt lat="43.64959" lon="3.25875">
        <ele>340.384912</ele>
        <time>2022-08-06T14:04:58.358Z</time>
      </trkpt>
      <trkpt lat="43.64962" lon="3.25837">
        <ele>343.508838</ele>
        <time>2022-08-06T14:05:16.199Z</time>
      </trkpt>
      <trkpt lat="43.64968" lon="3.25838">
        <ele>344.205631</ele>
        <time>2022-08-06T14:05:21.068Z</time>
      </trkpt>
      <trkpt lat="43.65008" lon="3.25953">
        <ele>354.574759</ele>
        <time>2022-08-06T14:06:29.675Z</time>
      </trkpt>
      <trkpt lat="43.65084" lon="3.26">
        <ele>364.409107</ele>
        <time>2022-08-06T14:07:42.002Z</time>
      </trkpt>
      <trkpt lat="43.65107" lon="3.26021">
        <ele>367.726843</ele>
        <time>2022-08-06T14:08:05.120Z</time>
      </trkpt>
      <trkpt lat="43.65125" lon="3.26042">
        <ele>370.445234</ele>
        <time>2022-08-06T14:08:23.994Z</time>
      </trkpt>
      <trkpt lat="43.65145" lon="3.26095">
        <ele>375.655235</ele>
        <time>2022-08-06T14:08:57.139Z</time>
      </trkpt>
      <trkpt lat="43.65147" lon="3.26103">
        <ele>376.386813</ele>
        <time>2022-08-06T14:09:01.268Z</time>
      </trkpt>
      <trkpt lat="43.65158" lon="3.26113">
        <ele>377.474427</ele>
        <time>2022-08-06T14:09:11.166Z</time>
      </trkpt>
      <trkpt lat="43.65214" lon="3.26168">
        <ele>382.894836</ele>
        <time>2022-08-06T14:09:56.132Z</time>
      </trkpt>
      <trkpt lat="43.6526" lon="3.26212">
        <ele>387.231722</ele>
        <time>2022-08-06T14:10:28.735Z</time>
      </trkpt>
      <trkpt lat="43.65275" lon="3.2622">
        <ele>388.478459</ele>
        <time>2022-08-06T14:10:36.887Z</time>
      </trkpt>
      <trkpt lat="43.65296" lon="3.26224">
        <ele>390.133799</ele>
        <time>2022-08-06T14:10:46.348Z</time>
      </trkpt>
      <trkpt lat="43.65326" lon="3.26247">
        <ele>392.198963</ele>
        <time>2022-08-06T14:11:00.704Z</time>
      </trkpt>
      <trkpt lat="43.6534" lon="3.26258">
        <ele>393.079732</ele>
        <time>2022-08-06T14:11:07.309Z</time>
      </trkpt>
      <trkpt lat="43.65316" lon="3.26357">
        <ele>397.207159</ele>
        <time>2022-08-06T14:11:40.069Z</time>
      </trkpt>
      <trkpt lat="43.65289" lon="3.26383">
        <ele>399.005162</ele>
        <time>2022-08-06T14:11:56.054Z</time>
      </trkpt>
      <trkpt lat="43.65246" lon="3.26481">
        <ele>404.872307</ele>
        <time>2022-08-06T14:12:43.007Z</time>
      </trkpt>
      <trkpt lat="43.65158" lon="3.26594">
        <ele>414.46496</ele>
        <time>2022-08-06T14:13:58.291Z</time>
      </trkpt>
      <trkpt lat="43.65143" lon="3.26646">
        <ele>416.643555</ele>
        <time>2022-08-06T14:14:24.343Z</time>
      </trkpt>
      <trkpt lat="43.65135" lon="3.26698">
        <ele>418.582869</ele>
        <time>2022-08-06T14:14:46.843Z</time>
      </trkpt>
      <trkpt lat="43.65134" lon="3.26741">
        <ele>420.152448</ele>
        <time>2022-08-06T14:15:02.646Z</time>
      </trkpt>
      <trkpt lat="43.65119" lon="3.26774">
        <ele>421.565623</ele>
        <time>2022-08-06T14:15:16.001Z</time>
      </trkpt>
      <trkpt lat="43.65111" lon="3.26782">
        <ele>422.080989</ele>
        <time>2022-08-06T14:15:19.420Z</time>
      </trkpt>
      <trkpt lat="43.65085" lon="3.26785">
        <ele>423.378132</ele>
        <time>2022-08-06T14:15:27.950Z</time>
      </trkpt>
      <trkpt lat="43.65069" lon="3.26797">
        <ele>423.640695</ele>
        <time>2022-08-06T14:15:31.155Z</time>
      </trkpt>
      <trkpt lat="43.65066" lon="3.26807">
        <ele>423.196736</ele>
        <time>2022-08-06T14:15:32.501Z</time>
      </trkpt>
      <trkpt lat="43.65082" lon="3.26888">
        <ele>419.821236</ele>
        <time>2022-08-06T14:15:41.520Z</time>
      </trkpt>
      <trkpt lat="43.65079" lon="3.26937">
        <ele>417.838926</ele>
        <time>2022-08-06T14:15:46.653Z</time>
      </trkpt>
      <trkpt lat="43.65084" lon="3.27012">
        <ele>414.77144</ele>
        <time>2022-08-06T14:15:53.906Z</time>
      </trkpt>
      <trkpt lat="43.6508" lon="3.27051">
        <ele>412.089207</ele>
        <time>2022-08-06T14:15:57.388Z</time>
      </trkpt>
      <trkpt lat="43.65025" lon="3.27139">
        <ele>400.348349</ele>
        <time>2022-08-06T14:16:07.621Z</time>
      </trkpt>
      <trkpt lat="43.64972" lon="3.27191">
        <ele>391.353045</ele>
        <time>2022-08-06T14:16:15.408Z</time>
      </trkpt>
      <trkpt lat="43.64908" lon="3.27242">
        <ele>382.474783</ele>
        <time>2022-08-06T14:16:24.366Z</time>
      </trkpt>
      <trkpt lat="43.64861" lon="3.27292">
        <ele>375.656224</ele>
        <time>2022-08-06T14:16:31.636Z</time>
      </trkpt>
      <trkpt lat="43.64859" lon="3.27325">
        <ele>372.867948</ele>
        <time>2022-08-06T14:16:34.694Z</time>
      </trkpt>
      <trkpt lat="43.64846" lon="3.27377">
        <ele>368.297021</ele>
        <time>2022-08-06T14:16:39.920Z</time>
      </trkpt>
      <trkpt lat="43.64829" lon="3.27399">
        <ele>366.710378</ele>
        <time>2022-08-06T14:16:43.062Z</time>
      </trkpt>
      <trkpt lat="43.64805" lon="3.27411">
        <ele>365.02245</ele>
        <time>2022-08-06T14:16:46.643Z</time>
      </trkpt>
      <trkpt lat="43.64783" lon="3.27454">
        <ele>362.500275</ele>
        <time>2022-08-06T14:16:52.054Z</time>
      </trkpt>
      <trkpt lat="43.6477" lon="3.2751">
        <ele>359.716999</ele>
        <time>2022-08-06T14:16:57.938Z</time>
      </trkpt>
      <trkpt lat="43.64762" lon="3.27589">
        <ele>355.780822</ele>
        <time>2022-08-06T14:17:05.584Z</time>
      </trkpt>
      <trkpt lat="43.64748" lon="3.27654">
        <ele>351.608975</ele>
        <time>2022-08-06T14:17:12.149Z</time>
      </trkpt>
      <trkpt lat="43.64726" lon="3.27705">
        <ele>347.96085</ele>
        <time>2022-08-06T14:17:17.859Z</time>
      </trkpt>
      <trkpt lat="43.64713" lon="3.27737">
        <ele>345.712635</ele>
        <time>2022-08-06T14:17:21.199Z</time>
      </trkpt>
      <trkpt lat="43.647" lon="3.27828">
        <ele>339.600335</ele>
        <time>2022-08-06T14:17:29.927Z</time>
      </trkpt>
      <trkpt lat="43.64699" lon="3.27919">
        <ele>331.532007</ele>
        <time>2022-08-06T14:17:38.101Z</time>
      </trkpt>
      <trkpt lat="43.64692" lon="3.27924">
        <ele>330.63039</ele>
        <time>2022-08-06T14:17:39.538Z</time>
      </trkpt>
      <trkpt lat="43.64688" lon="3.27938">
        <ele>329.305274</ele>
        <time>2022-08-06T14:17:41.872Z</time>
      </trkpt>
      <trkpt lat="43.64674" lon="3.28012">
        <ele>322.633422</ele>
        <time>2022-08-06T14:17:53.284Z</time>
      </trkpt>
      <trkpt lat="43.64664" lon="3.28027">
        <ele>320.80539</ele>
        <time>2022-08-06T14:17:56.399Z</time>
      </trkpt>
      <trkpt lat="43.64655" lon="3.28057">
        <ele>318.097605</ele>
        <time>2022-08-06T14:18:01.304Z</time>
      </trkpt>
      <trkpt lat="43.64649" lon="3.2809">
        <ele>315.434718</ele>
        <time>2022-08-06T14:18:06.652Z</time>
      </trkpt>
      <trkpt lat="43.64652" lon="3.28112">
        <ele>313.721301</ele>
        <time>2022-08-06T14:18:09.933Z</time>
      </trkpt>
      <trkpt lat="43.64701" lon="3.28219">
        <ele>303.996315</ele>
        <time>2022-08-06T14:18:29.543Z</time>
      </trkpt>
      <trkpt lat="43.64729" lon="3.28258">
        <ele>299.932381</ele>
        <time>2022-08-06T14:18:37.776Z</time>
      </trkpt>
      <trkpt lat="43.64727" lon="3.28263">
        <ele>299.702859</ele>
        <time>2022-08-06T14:18:38.547Z</time>
      </trkpt>
      <trkpt lat="43.64682" lon="3.28245">
        <ele>296.812586</ele>
        <time>2022-08-06T14:18:49.430Z</time>
      </trkpt>
      <trkpt lat="43.64666" lon="3.28232">
        <ele>295.679411</ele>
        <time>2022-08-06T14:18:54.025Z</time>
      </trkpt>
      <trkpt lat="43.64597" lon="3.28155">
        <ele>290.212246</ele>
        <time>2022-08-06T14:19:15.204Z</time>
      </trkpt>
      <trkpt lat="43.64541" lon="3.28135">
        <ele>286.476605</ele>
        <time>2022-08-06T14:19:29.224Z</time>
      </trkpt>
      <trkpt lat="43.64521" lon="3.28123">
        <ele>285.041953</ele>
        <time>2022-08-06T14:19:34.307Z</time>
      </trkpt>
      <trkpt lat="43.64498" lon="3.28122">
        <ele>283.542988</ele>
        <time>2022-08-06T14:19:39.477Z</time>
      </trkpt>
      <trkpt lat="43.64478" lon="3.28109">
        <ele>282.094355</ele>
        <time>2022-08-06T14:19:44.459Z</time>
      </trkpt>
      <trkpt lat="43.64479" lon="3.28122">
        <ele>281.490031</ele>
        <time>2022-08-06T14:19:46.494Z</time>
      </trkpt>
      <trkpt lat="43.64518" lon="3.28158">
        <ele>278.379643</ele>
        <time>2022-08-06T14:19:57.289Z</time>
      </trkpt>
      <trkpt lat="43.64527" lon="3.28212">
        <ele>275.550697</ele>
        <time>2022-08-06T14:20:06.430Z</time>
      </trkpt>
      <trkpt lat="43.64562" lon="3.28297">
        <ele>270.226488</ele>
        <time>2022-08-06T14:20:22.284Z</time>
      </trkpt>
      <trkpt lat="43.64608" lon="3.2835">
        <ele>265.762527</ele>
        <time>2022-08-06T14:20:35.543Z</time>
      </trkpt>
      <trkpt lat="43.64617" lon="3.28371">
        <ele>264.456361</ele>
        <time>2022-08-06T14:20:39.378Z</time>
      </trkpt>
      <trkpt lat="43.64612" lon="3.28374">
        <ele>264.039186</ele>
        <time>2022-08-06T14:20:40.651Z</time>
      </trkpt>
      <trkpt lat="43.64582" lon="3.28353">
        <ele>262.411465</ele>
        <time>2022-08-06T14:20:48.420Z</time>
      </trkpt>
      <trkpt lat="43.64565" lon="3.28355">
        <ele>261.691104</ele>
        <time>2022-08-06T14:20:52.423Z</time>
      </trkpt>
      <trkpt lat="43.64539" lon="3.28342">
        <ele>260.471451</ele>
        <time>2022-08-06T14:20:59.632Z</time>
      </trkpt>
      <trkpt lat="43.64518" lon="3.28307">
        <ele>259.01846</ele>
        <time>2022-08-06T14:21:08.712Z</time>
      </trkpt>
      <trkpt lat="43.64495" lon="3.28283">
        <ele>257.767761</ele>
        <time>2022-08-06T14:21:15.944Z</time>
      </trkpt>
      <trkpt lat="43.64475" lon="3.28273">
        <ele>256.816192</ele>
        <time>2022-08-06T14:21:21.402Z</time>
      </trkpt>
      <trkpt lat="43.64468" lon="3.28278">
        <ele>256.47769</ele>
        <time>2022-08-06T14:21:23.297Z</time>
      </trkpt>
      <trkpt lat="43.64473" lon="3.28404">
        <ele>251.038199</ele>
        <time>2022-08-06T14:21:45.355Z</time>
      </trkpt>
      <trkpt lat="43.64468" lon="3.28489">
        <ele>247.205474</ele>
        <time>2022-08-06T14:21:59.496Z</time>
      </trkpt>
      <trkpt lat="43.64464" lon="3.28499">
        <ele>246.660749</ele>
        <time>2022-08-06T14:22:01.410Z</time>
      </trkpt>
      <trkpt lat="43.64423" lon="3.28529">
        <ele>243.554582</ele>
        <time>2022-08-06T14:22:11.679Z</time>
      </trkpt>
      <trkpt lat="43.64396" lon="3.28564">
        <ele>240.663078</ele>
        <time>2022-08-06T14:22:19.672Z</time>
      </trkpt>
      <trkpt lat="43.64354" lon="3.28594">
        <ele>236.877962</ele>
        <time>2022-08-06T14:22:30.245Z</time>
      </trkpt>
      <trkpt lat="43.64352" lon="3.28607">
        <ele>236.143844</ele>
        <time>2022-08-06T14:22:32.213Z</time>
      </trkpt>
      <trkpt lat="43.64329" lon="3.28636">
        <ele>233.630082</ele>
        <time>2022-08-06T14:22:39.470Z</time>
      </trkpt>
      <trkpt lat="43.64323" lon="3.28702">
        <ele>229.891536</ele>
        <time>2022-08-06T14:22:50.290Z</time>
      </trkpt>
      <trkpt lat="43.64275" lon="3.28774">
        <ele>225.134308</ele>
        <time>2022-08-06T14:23:06.161Z</time>
      </trkpt>
      <trkpt lat="43.6426" lon="3.28816">
        <ele>222.847394</ele>
        <time>2022-08-06T14:23:13.828Z</time>
      </trkpt>
      <trkpt lat="43.64204" lon="3.28883">
        <ele>218.028099</ele>
        <time>2022-08-06T14:23:30.887Z</time>
      </trkpt>
      <trkpt lat="43.64121" lon="3.2894">
        <ele>215.75319</ele>
        <time>2022-08-06T14:23:54.142Z</time>
      </trkpt>
      <trkpt lat="43.64147" lon="3.28947">
        <ele>215.107336</ele>
        <time>2022-08-06T14:24:01.302Z</time>
      </trkpt>
      <trkpt lat="43.64152" lon="3.28958">
        <ele>214.862949</ele>
        <time>2022-08-06T14:24:04.026Z</time>
      </trkpt>
      <trkpt lat="43.64149" lon="3.28969">
        <ele>214.652146</ele>
        <time>2022-08-06T14:24:07.128Z</time>
      </trkpt>
      <trkpt lat="43.64147" lon="3.28973">
        <ele>214.562812</ele>
        <time>2022-08-06T14:24:08.710Z</time>
      </trkpt>
      <trkpt lat="43.64124" lon="3.29009">
        <ele>213.709141</ele>
        <time>2022-08-06T14:24:20.574Z</time>
      </trkpt>
      <trkpt lat="43.64118" lon="3.2905">
        <ele>214.264534</ele>
        <time>2022-08-06T14:24:31.794Z</time>
      </trkpt>
      <trkpt lat="43.64158" lon="3.29131">
        <ele>215.556073</ele>
        <time>2022-08-06T14:25:03.427Z</time>
      </trkpt>
      <trkpt lat="43.64159" lon="3.29149">
        <ele>215.804228</ele>
        <time>2022-08-06T14:25:11.211Z</time>
      </trkpt>
      <trkpt lat="43.64163" lon="3.29181">
        <ele>216.227949</ele>
        <time>2022-08-06T14:25:20.154Z</time>
      </trkpt>
      <trkpt lat="43.64157" lon="3.29237">
        <ele>216.987116</ele>
        <time>2022-08-06T14:25:37.470Z</time>
      </trkpt>
      <trkpt lat="43.64158" lon="3.29264">
        <ele>216.956557</ele>
        <time>2022-08-06T14:25:44.356Z</time>
      </trkpt>
      <trkpt lat="43.64167" lon="3.29344">
        <ele>216.783626</ele>
        <time>2022-08-06T14:26:04.284Z</time>
      </trkpt>
      <trkpt lat="43.64168" lon="3.29405">
        <ele>216.656333</ele>
        <time>2022-08-06T14:26:11.329Z</time>
      </trkpt>
      <trkpt lat="43.64176" lon="3.29452">
        <ele>216.552611</ele>
        <time>2022-08-06T14:26:16.990Z</time>
      </trkpt>
      <trkpt lat="43.64188" lon="3.29482">
        <ele>216.486754</ele>
        <time>2022-08-06T14:26:20.938Z</time>
      </trkpt>
      <trkpt lat="43.64194" lon="3.29494">
        <ele>216.520098</ele>
        <time>2022-08-06T14:26:22.913Z</time>
      </trkpt>
      <trkpt lat="43.64251" lon="3.29556">
        <ele>216.758365</ele>
        <time>2022-08-06T14:26:37.538Z</time>
      </trkpt>
      <trkpt lat="43.643" lon="3.29578">
        <ele>216.928625</ele>
        <time>2022-08-06T14:26:49.992Z</time>
      </trkpt>
      <trkpt lat="43.64338" lon="3.29585">
        <ele>217.054337</ele>
        <time>2022-08-06T14:27:01.187Z</time>
      </trkpt>
      <trkpt lat="43.64452" lon="3.29626">
        <ele>216.096391</ele>
        <time>2022-08-06T14:27:29.106Z</time>
      </trkpt>
      <trkpt lat="43.64491" lon="3.29693">
        <ele>215.556408</ele>
        <time>2022-08-06T14:27:38.720Z</time>
      </trkpt>
      <trkpt lat="43.64515" lon="3.2974">
        <ele>213.56896</ele>
        <time>2022-08-06T14:27:44.467Z</time>
      </trkpt>
      <trkpt lat="43.64523" lon="3.29754">
        <ele>212.867383</ele>
        <time>2022-08-06T14:27:46.228Z</time>
      </trkpt>
      <trkpt lat="43.64543" lon="3.29785">
        <ele>211.251547</ele>
        <time>2022-08-06T14:27:50.108Z</time>
      </trkpt>
      <trkpt lat="43.64589" lon="3.29824">
        <ele>208.353701</ele>
        <time>2022-08-06T14:27:56.974Z</time>
      </trkpt>
      <trkpt lat="43.64643" lon="3.29866">
        <ele>205.167938</ele>
        <time>2022-08-06T14:28:05.022Z</time>
      </trkpt>
      <trkpt lat="43.6465" lon="3.29874">
        <ele>204.784521</ele>
        <time>2022-08-06T14:28:06.100Z</time>
      </trkpt>
      <trkpt lat="43.64699" lon="3.30013">
        <ele>199.987342</ele>
        <time>2022-08-06T14:28:21.723Z</time>
      </trkpt>
      <trkpt lat="43.64707" lon="3.30023">
        <ele>199.529477</ele>
        <time>2022-08-06T14:28:23.337Z</time>
      </trkpt>
      <trkpt lat="43.64731" lon="3.30032">
        <ele>198.46501</ele>
        <time>2022-08-06T14:28:26.688Z</time>
      </trkpt>
      <trkpt lat="43.6478" lon="3.30038">
        <ele>196.436283</ele>
        <time>2022-08-06T14:28:33.920Z</time>
      </trkpt>
      <trkpt lat="43.64788" lon="3.30047">
        <ele>196.02717</ele>
        <time>2022-08-06T14:28:35.323Z</time>
      </trkpt>
      <trkpt lat="43.64836" lon="3.30106">
        <ele>193.417206</ele>
        <time>2022-08-06T14:28:44.194Z</time>
      </trkpt>
      <trkpt lat="43.64883" lon="3.30117">
        <ele>191.462299</ele>
        <time>2022-08-06T14:28:50.672Z</time>
      </trkpt>
      <trkpt lat="43.649" lon="3.30128">
        <ele>190.729631</ele>
        <time>2022-08-06T14:28:53.107Z</time>
      </trkpt>
      <trkpt lat="43.64906" lon="3.30137">
        <ele>190.394736</ele>
        <time>2022-08-06T14:28:54.384Z</time>
      </trkpt>
      <trkpt lat="43.64964" lon="3.30224">
        <ele>187.387719</ele>
        <time>2022-08-06T14:29:05.961Z</time>
      </trkpt>
      <trkpt lat="43.64981" lon="3.30237">
        <ele>186.69572</ele>
        <time>2022-08-06T14:29:08.850Z</time>
      </trkpt>
      <trkpt lat="43.65003" lon="3.30238">
        <ele>185.927581</ele>
        <time>2022-08-06T14:29:11.872Z</time>
      </trkpt>
      <trkpt lat="43.65019" lon="3.30239">
        <ele>185.35693</ele>
        <time>2022-08-06T14:29:14.344Z</time>
      </trkpt>
      <trkpt lat="43.65063" lon="3.30253">
        <ele>184.502389</ele>
        <time>2022-08-06T14:29:21.338Z</time>
      </trkpt>
      <trkpt lat="43.65088" lon="3.3027">
        <ele>184.581336</ele>
        <time>2022-08-06T14:29:26.437Z</time>
      </trkpt>
      <trkpt lat="43.65122" lon="3.30324">
        <ele>184.725617</ele>
        <time>2022-08-06T14:29:36.957Z</time>
      </trkpt>
      <trkpt lat="43.65124" lon="3.30327">
        <ele>184.733939</ele>
        <time>2022-08-06T14:29:37.616Z</time>
      </trkpt>
      <trkpt lat="43.65129" lon="3.30329">
        <ele>184.749127</ele>
        <time>2022-08-06T14:29:38.951Z</time>
      </trkpt>
      <trkpt lat="43.65188" lon="3.3029">
        <ele>184.933417</ele>
        <time>2022-08-06T14:29:56.229Z</time>
      </trkpt>
      <trkpt lat="43.65229" lon="3.30283">
        <ele>185.777168</ele>
        <time>2022-08-06T14:30:07.060Z</time>
      </trkpt>
      <trkpt lat="43.65261" lon="3.30262">
        <ele>186.651223</ele>
        <time>2022-08-06T14:30:17.480Z</time>
      </trkpt>
      <trkpt lat="43.65315" lon="3.30269">
        <ele>187.987471</ele>
        <time>2022-08-06T14:30:34.825Z</time>
      </trkpt>
      <trkpt lat="43.65336" lon="3.30276">
        <ele>188.518236</ele>
        <time>2022-08-06T14:30:41.853Z</time>
      </trkpt>
      <trkpt lat="43.65355" lon="3.30282">
        <ele>189.006312</ele>
        <time>2022-08-06T14:30:48.881Z</time>
      </trkpt>
      <trkpt lat="43.65413" lon="3.3029">
        <ele>191.089926</ele>
        <time>2022-08-06T14:31:11.028Z</time>
      </trkpt>
      <trkpt lat="43.65427" lon="3.30297">
        <ele>191.680479</ele>
        <time>2022-08-06T14:31:16.736Z</time>
      </trkpt>
      <trkpt lat="43.65436" lon="3.30309">
        <ele>192.15515</ele>
        <time>2022-08-06T14:31:20.931Z</time>
      </trkpt>
      <trkpt lat="43.65451" lon="3.30303">
        <ele>192.765717</ele>
        <time>2022-08-06T14:31:26.854Z</time>
      </trkpt>
      <trkpt lat="43.65456" lon="3.30301">
        <ele>192.976392</ele>
        <time>2022-08-06T14:31:29.033Z</time>
      </trkpt>
      <trkpt lat="43.6547" lon="3.30285">
        <ele>193.68201</ele>
        <time>2022-08-06T14:31:35.865Z</time>
      </trkpt>
      <trkpt lat="43.65473" lon="3.30281">
        <ele>193.848813</ele>
        <time>2022-08-06T14:31:37.525Z</time>
      </trkpt>
      <trkpt lat="43.6549" lon="3.30254">
        <ele>194.856273</ele>
        <time>2022-08-06T14:31:48.325Z</time>
      </trkpt>
      <trkpt lat="43.65509" lon="3.30238">
        <ele>195.740022</ele>
        <time>2022-08-06T14:31:57.779Z</time>
      </trkpt>
      <trkpt lat="43.6552" lon="3.30238">
        <ele>196.166086</ele>
        <time>2022-08-06T14:32:02.484Z</time>
      </trkpt>
      <trkpt lat="43.65569" lon="3.30274">
        <ele>198.951404</ele>
        <time>2022-08-06T14:32:26.948Z</time>
      </trkpt>
      <trkpt lat="43.65611" lon="3.3029">
        <ele>201.223652</ele>
        <time>2022-08-06T14:32:47.091Z</time>
      </trkpt>
      <trkpt lat="43.65627" lon="3.3031">
        <ele>202.355007</ele>
        <time>2022-08-06T14:32:57.005Z</time>
      </trkpt>
      <trkpt lat="43.65638" lon="3.30347">
        <ele>203.834959</ele>
        <time>2022-08-06T14:33:10.032Z</time>
      </trkpt>
      <trkpt lat="43.65651" lon="3.30374">
        <ele>205.060254</ele>
        <time>2022-08-06T14:33:20.837Z</time>
      </trkpt>
      <trkpt lat="43.65674" lon="3.30401">
        <ele>207.306407</ele>
        <time>2022-08-06T14:33:35.731Z</time>
      </trkpt>
      <trkpt lat="43.65728" lon="3.30423">
        <ele>212.478347</ele>
        <time>2022-08-06T14:34:06.581Z</time>
      </trkpt>
      <trkpt lat="43.65765" lon="3.30418">
        <ele>215.926482</ele>
        <time>2022-08-06T14:34:33.285Z</time>
      </trkpt>
      <trkpt lat="43.65866" lon="3.30442">
        <ele>226.720849</ele>
        <time>2022-08-06T14:35:52.099Z</time>
      </trkpt>
      <trkpt lat="43.65879" lon="3.30443">
        <ele>228.444002</ele>
        <time>2022-08-06T14:36:07.833Z</time>
      </trkpt>
      <trkpt lat="43.65934" lon="3.3042">
        <ele>236.077792</ele>
        <time>2022-08-06T14:36:59.796Z</time>
      </trkpt>
      <trkpt lat="43.65974" lon="3.30394">
        <ele>242.010922</ele>
        <time>2022-08-06T14:37:47.090Z</time>
      </trkpt>
      <trkpt lat="43.66015" lon="3.30382">
        <ele>247.40883</ele>
        <time>2022-08-06T14:38:35.148Z</time>
      </trkpt>
      <trkpt lat="43.66043" lon="3.30364">
        <ele>250.955679</ele>
        <time>2022-08-06T14:39:05.342Z</time>
      </trkpt>
      <trkpt lat="43.66074" lon="3.30325">
        <ele>255.751141</ele>
        <time>2022-08-06T14:39:45.459Z</time>
      </trkpt>
      <trkpt lat="43.66093" lon="3.3032">
        <ele>258.034545</ele>
        <time>2022-08-06T14:40:03.649Z</time>
      </trkpt>
      <trkpt lat="43.66119" lon="3.30304">
        <ele>261.242678</ele>
        <time>2022-08-06T14:40:28.267Z</time>
      </trkpt>
      <trkpt lat="43.66133" lon="3.30277">
        <ele>264.07536</ele>
        <time>2022-08-06T14:40:47.142Z</time>
      </trkpt>
      <trkpt lat="43.66155" lon="3.30271">
        <ele>266.573157</ele>
        <time>2022-08-06T14:41:02.330Z</time>
      </trkpt>
      <trkpt lat="43.66176" lon="3.30239">
        <ele>268.665406</ele>
        <time>2022-08-06T14:41:24.231Z</time>
      </trkpt>
      <trkpt lat="43.66184" lon="3.30212">
        <ele>269.867915</ele>
        <time>2022-08-06T14:41:38.112Z</time>
      </trkpt>
      <trkpt lat="43.66177" lon="3.30175">
        <ele>271.462282</ele>
        <time>2022-08-06T14:41:55.748Z</time>
      </trkpt>
      <trkpt lat="43.66185" lon="3.30157">
        <ele>272.35745</ele>
        <time>2022-08-06T14:42:05.198Z</time>
      </trkpt>
      <trkpt lat="43.66191" lon="3.30153">
        <ele>272.736353</ele>
        <time>2022-08-06T14:42:08.199Z</time>
      </trkpt>
      <trkpt lat="43.66197" lon="3.30157">
        <ele>273.137912</ele>
        <time>2022-08-06T14:42:11.171Z</time>
      </trkpt>
      <trkpt lat="43.6622" lon="3.30177">
        <ele>274.714276</ele>
        <time>2022-08-06T14:42:25.803Z</time>
      </trkpt>
      <trkpt lat="43.66229" lon="3.30193">
        <ele>275.515315</ele>
        <time>2022-08-06T14:42:33.068Z</time>
      </trkpt>
      <trkpt lat="43.6624" lon="3.30199">
        <ele>276.190438</ele>
        <time>2022-08-06T14:42:40.147Z</time>
      </trkpt>
      <trkpt lat="43.6633" lon="3.30175">
        <ele>282.383895</ele>
        <time>2022-08-06T14:43:31.291Z</time>
      </trkpt>
      <trkpt lat="43.66375" lon="3.30156">
        <ele>285.706796</ele>
        <time>2022-08-06T14:44:01.995Z</time>
      </trkpt>
      <trkpt lat="43.66415" lon="3.3013">
        <ele>288.85559</ele>
        <time>2022-08-06T14:44:36.668Z</time>
      </trkpt>
      <trkpt lat="43.66473" lon="3.30049">
        <ele>296.813806</ele>
        <time>2022-08-06T14:45:45.771Z</time>
      </trkpt>
      <trkpt lat="43.665" lon="3.30029">
        <ele>299.973064</ele>
        <time>2022-08-06T14:46:11.734Z</time>
      </trkpt>
      <trkpt lat="43.66516" lon="3.29987">
        <ele>303.564956</ele>
        <time>2022-08-06T14:46:40.739Z</time>
      </trkpt>
      <trkpt lat="43.66541" lon="3.29972">
        <ele>306.406615</ele>
        <time>2022-08-06T14:47:03.440Z</time>
      </trkpt>
      <trkpt lat="43.66567" lon="3.29944">
        <ele>309.82743</ele>
        <time>2022-08-06T14:47:32.008Z</time>
      </trkpt>
      <trkpt lat="43.66585" lon="3.29912">
        <ele>312.693811</ele>
        <time>2022-08-06T14:47:57.661Z</time>
      </trkpt>
      <trkpt lat="43.66615" lon="3.29821">
        <ele>319.828487</ele>
        <time>2022-08-06T14:48:59.681Z</time>
      </trkpt>
      <trkpt lat="43.66606" lon="3.29779">
        <ele>322.962556</ele>
        <time>2022-08-06T14:49:24.410Z</time>
      </trkpt>
      <trkpt lat="43.66619" lon="3.2975">
        <ele>325.406574</ele>
        <time>2022-08-06T14:49:43.686Z</time>
      </trkpt>
      <trkpt lat="43.66643" lon="3.29596">
        <ele>331.326199</ele>
        <time>2022-08-06T14:51:00.978Z</time>
      </trkpt>
      <trkpt lat="43.66665" lon="3.2956">
        <ele>332.880515</ele>
        <time>2022-08-06T14:51:17.937Z</time>
      </trkpt>
      <trkpt lat="43.66682" lon="3.2951">
        <ele>334.724054</ele>
        <time>2022-08-06T14:51:32.782Z</time>
      </trkpt>
      <trkpt lat="43.66684" lon="3.29466">
        <ele>333.589368</ele>
        <time>2022-08-06T14:51:41.821Z</time>
      </trkpt>
      <trkpt lat="43.66674" lon="3.29423">
        <ele>331.96653</ele>
        <time>2022-08-06T14:51:50.044Z</time>
      </trkpt>
      <trkpt lat="43.66682" lon="3.29398">
        <ele>330.981703</ele>
        <time>2022-08-06T14:51:55.258Z</time>
      </trkpt>
      <trkpt lat="43.66695" lon="3.29395">
        <ele>330.275969</ele>
        <time>2022-08-06T14:51:58.381Z</time>
      </trkpt>
      <trkpt lat="43.66754" lon="3.29496">
        <ele>325.570612</ele>
        <time>2022-08-06T14:52:19.741Z</time>
      </trkpt>
      <trkpt lat="43.66747" lon="3.29572">
        <ele>322.628345</ele>
        <time>2022-08-06T14:52:31.654Z</time>
      </trkpt>
      <trkpt lat="43.66755" lon="3.29662">
        <ele>319.101598</ele>
        <time>2022-08-06T14:52:46.717Z</time>
      </trkpt>
      <trkpt lat="43.66816" lon="3.29775">
        <ele>318.906438</ele>
        <time>2022-08-06T14:53:19.792Z</time>
      </trkpt>
      <trkpt lat="43.66836" lon="3.29801">
        <ele>320.246198</ele>
        <time>2022-08-06T14:53:34.481Z</time>
      </trkpt>
      <trkpt lat="43.66853" lon="3.29809">
        <ele>321.153169</ele>
        <time>2022-08-06T14:53:45.859Z</time>
      </trkpt>
      <trkpt lat="43.66886" lon="3.29833">
        <ele>323.015795</ele>
        <time>2022-08-06T14:54:11.801Z</time>
      </trkpt>
      <trkpt lat="43.66913" lon="3.29842">
        <ele>324.369157</ele>
        <time>2022-08-06T14:54:31.451Z</time>
      </trkpt>
      <trkpt lat="43.66937" lon="3.29843">
        <ele>325.722277</ele>
        <time>2022-08-06T14:54:49.377Z</time>
      </trkpt>
      <trkpt lat="43.66967" lon="3.29836">
        <ele>328.366938</ele>
        <time>2022-08-06T14:55:13.733Z</time>
      </trkpt>
      <trkpt lat="43.6699" lon="3.29821">
        <ele>330.567467</ele>
        <time>2022-08-06T14:55:35.077Z</time>
      </trkpt>
      <trkpt lat="43.67004" lon="3.2982">
        <ele>331.817297</ele>
        <time>2022-08-06T14:55:47.122Z</time>
      </trkpt>
      <trkpt lat="43.67054" lon="3.29833">
        <ele>336.237084</ele>
        <time>2022-08-06T14:56:26.325Z</time>
      </trkpt>
      <trkpt lat="43.67093" lon="3.29856">
        <ele>339.868195</ele>
        <time>2022-08-06T14:56:55.491Z</time>
      </trkpt>
      <trkpt lat="43.67101" lon="3.2989">
        <ele>341.842207</ele>
        <time>2022-08-06T14:57:12.491Z</time>
      </trkpt>
      <trkpt lat="43.67101" lon="3.29944">
        <ele>344.440894</ele>
        <time>2022-08-06T14:57:40.107Z</time>
      </trkpt>
      <trkpt lat="43.67067" lon="3.30025">
        <ele>348.95689</ele>
        <time>2022-08-06T14:58:25.300Z</time>
      </trkpt>
      <trkpt lat="43.67066" lon="3.30097">
        <ele>352.402706</ele>
        <time>2022-08-06T14:58:55.618Z</time>
      </trkpt>
      <trkpt lat="43.67059" lon="3.30115">
        <ele>353.207661</ele>
        <time>2022-08-06T14:59:07.065Z</time>
      </trkpt>
      <trkpt lat="43.6698" lon="3.3022">
        <ele>358.045047</ele>
        <time>2022-08-06T15:00:06.180Z</time>
      </trkpt>
      <trkpt lat="43.66946" lon="3.30299">
        <ele>360.915429</ele>
        <time>2022-08-06T15:00:39.977Z</time>
      </trkpt>
      <trkpt lat="43.66939" lon="3.30359">
        <ele>362.428718</ele>
        <time>2022-08-06T15:01:00.296Z</time>
      </trkpt>
      <trkpt lat="43.66906" lon="3.30398">
        <ele>363.906678</ele>
        <time>2022-08-06T15:01:20.470Z</time>
      </trkpt>
      <trkpt lat="43.66888" lon="3.30465">
        <ele>365.693769</ele>
        <time>2022-08-06T15:01:45.748Z</time>
      </trkpt>
      <trkpt lat="43.66858" lon="3.30541">
        <ele>367.949526</ele>
        <time>2022-08-06T15:02:17.350Z</time>
      </trkpt>
      <trkpt lat="43.66836" lon="3.30579">
        <ele>369.302082</ele>
        <time>2022-08-06T15:02:36.426Z</time>
      </trkpt>
      <trkpt lat="43.66826" lon="3.30633">
        <ele>370.858949</ele>
        <time>2022-08-06T15:02:58.574Z</time>
      </trkpt>
      <trkpt lat="43.66815" lon="3.30654">
        <ele>371.589427</ele>
        <time>2022-08-06T15:03:08.211Z</time>
      </trkpt>
      <trkpt lat="43.66786" lon="3.30671">
        <ele>372.784787</ele>
        <time>2022-08-06T15:03:23.477Z</time>
      </trkpt>
      <trkpt lat="43.66757" lon="3.30667">
        <ele>373.908106</ele>
        <time>2022-08-06T15:03:37.678Z</time>
      </trkpt>
      <trkpt lat="43.66704" lon="3.30676">
        <ele>375.798446</ele>
        <time>2022-08-06T15:04:02.640Z</time>
      </trkpt>
      <trkpt lat="43.66685" lon="3.3069">
        <ele>376.547975</ele>
        <time>2022-08-06T15:04:12.820Z</time>
      </trkpt>
      <trkpt lat="43.66665" lon="3.30717">
        <ele>377.557249</ele>
        <time>2022-08-06T15:04:26.942Z</time>
      </trkpt>
      <trkpt lat="43.6666" lon="3.30759">
        <ele>378.639219</ele>
        <time>2022-08-06T15:04:42.080Z</time>
      </trkpt>
      <trkpt lat="43.66653" lon="3.30812">
        <ele>380.03619</ele>
        <time>2022-08-06T15:05:01.741Z</time>
      </trkpt>
      <trkpt lat="43.66654" lon="3.30836">
        <ele>380.755587</ele>
        <time>2022-08-06T15:05:10.247Z</time>
      </trkpt>
      <trkpt lat="43.66678" lon="3.30879">
        <ele>382.548542</ele>
        <time>2022-08-06T15:05:32.550Z</time>
      </trkpt>
      <trkpt lat="43.66683" lon="3.309">
        <ele>383.274431</ele>
        <time>2022-08-06T15:05:41.333Z</time>
      </trkpt>
      <trkpt lat="43.66721" lon="3.30959">
        <ele>385.8745</ele>
        <time>2022-08-06T15:06:13.883Z</time>
      </trkpt>
      <trkpt lat="43.66743" lon="3.3102">
        <ele>388.111159</ele>
        <time>2022-08-06T15:06:40.515Z</time>
      </trkpt>
      <trkpt lat="43.66739" lon="3.31032">
        <ele>388.49245</ele>
        <time>2022-08-06T15:06:47.291Z</time>
      </trkpt>
      <trkpt lat="43.66768" lon="3.31091">
        <ele>389.778098</ele>
        <time>2022-08-06T15:07:12.770Z</time>
      </trkpt>
      <trkpt lat="43.66795" lon="3.31131">
        <ele>390.763607</ele>
        <time>2022-08-06T15:07:31.268Z</time>
      </trkpt>
      <trkpt lat="43.66809" lon="3.31141">
        <ele>391.13318</ele>
        <time>2022-08-06T15:07:38.703Z</time>
      </trkpt>
      <trkpt lat="43.66829" lon="3.31203">
        <ele>392.372495</ele>
        <time>2022-08-06T15:07:58.752Z</time>
      </trkpt>
      <trkpt lat="43.66843" lon="3.31231">
        <ele>392.820688</ele>
        <time>2022-08-06T15:08:06.588Z</time>
      </trkpt>
      <trkpt lat="43.66846" lon="3.31286">
        <ele>392.058718</ele>
        <time>2022-08-06T15:08:18.589Z</time>
      </trkpt>
      <trkpt lat="43.66839" lon="3.31337">
        <ele>391.329362</ele>
        <time>2022-08-06T15:08:28.944Z</time>
      </trkpt>
      <trkpt lat="43.66828" lon="3.31373">
        <ele>390.787913</ele>
        <time>2022-08-06T15:08:36.199Z</time>
      </trkpt>
      <trkpt lat="43.66839" lon="3.31463">
        <ele>389.514919</ele>
        <time>2022-08-06T15:08:53.487Z</time>
      </trkpt>
      <trkpt lat="43.66834" lon="3.31485">
        <ele>388.746369</ele>
        <time>2022-08-06T15:08:58.008Z</time>
      </trkpt>
      <trkpt lat="43.66823" lon="3.3151">
        <ele>387.517611</ele>
        <time>2022-08-06T15:09:03.451Z</time>
      </trkpt>
      <trkpt lat="43.66798" lon="3.31554">
        <ele>385.17628</ele>
        <time>2022-08-06T15:09:13.336Z</time>
      </trkpt>
      <trkpt lat="43.66782" lon="3.3157">
        <ele>383.998663</ele>
        <time>2022-08-06T15:09:18.289Z</time>
      </trkpt>
      <trkpt lat="43.66742" lon="3.31553">
        <ele>381.576385</ele>
        <time>2022-08-06T15:09:27.749Z</time>
      </trkpt>
      <trkpt lat="43.66729" lon="3.31554">
        <ele>380.867529</ele>
        <time>2022-08-06T15:09:30.455Z</time>
      </trkpt>
      <trkpt lat="43.66699" lon="3.31573">
        <ele>378.91338</ele>
        <time>2022-08-06T15:09:37.777Z</time>
      </trkpt>
      <trkpt lat="43.66685" lon="3.31555">
        <ele>377.18422</ele>
        <time>2022-08-06T15:09:42.081Z</time>
      </trkpt>
      <trkpt lat="43.66672" lon="3.31559">
        <ele>375.91172</ele>
        <time>2022-08-06T15:09:45.039Z</time>
      </trkpt>
      <trkpt lat="43.66653" lon="3.31552">
        <ele>374.14992</ele>
        <time>2022-08-06T15:09:49.374Z</time>
      </trkpt>
      <trkpt lat="43.66582" lon="3.31518">
        <ele>367.267926</ele>
        <time>2022-08-06T15:10:05.773Z</time>
      </trkpt>
      <trkpt lat="43.66499" lon="3.31474">
        <ele>359.097069</ele>
        <time>2022-08-06T15:10:24.717Z</time>
      </trkpt>
      <trkpt lat="43.6648" lon="3.31456">
        <ele>356.965821</ele>
        <time>2022-08-06T15:10:29.817Z</time>
      </trkpt>
      <trkpt lat="43.6644" lon="3.31443">
        <ele>353.168409</ele>
        <time>2022-08-06T15:10:38.914Z</time>
      </trkpt>
      <trkpt lat="43.66317" lon="3.3137">
        <ele>339.600046</ele>
        <time>2022-08-06T15:11:08.121Z</time>
      </trkpt>
      <trkpt lat="43.66265" lon="3.31367">
        <ele>333.587232</ele>
        <time>2022-08-06T15:11:18.984Z</time>
      </trkpt>
      <trkpt lat="43.66227" lon="3.31322">
        <ele>327.828972</ele>
        <time>2022-08-06T15:11:29.360Z</time>
      </trkpt>
      <trkpt lat="43.66192" lon="3.3127">
        <ele>320.787462</ele>
        <time>2022-08-06T15:11:39.934Z</time>
      </trkpt>
      <trkpt lat="43.66187" lon="3.3125">
        <ele>318.350029</ele>
        <time>2022-08-06T15:11:43.171Z</time>
      </trkpt>
      <trkpt lat="43.66128" lon="3.31183">
        <ele>306.529827</ele>
        <time>2022-08-06T15:11:58.461Z</time>
      </trkpt>
      <trkpt lat="43.66116" lon="3.31134">
        <ele>300.738491</ele>
        <time>2022-08-06T15:12:05.831Z</time>
      </trkpt>
      <trkpt lat="43.66111" lon="3.31127">
        <ele>299.56374</ele>
        <time>2022-08-06T15:12:07.388Z</time>
      </trkpt>
      <trkpt lat="43.66088" lon="3.31143">
        <ele>295.205897</ele>
        <time>2022-08-06T15:12:12.438Z</time>
      </trkpt>
      <trkpt lat="43.66049" lon="3.31188">
        <ele>285.148977</ele>
        <time>2022-08-06T15:12:22.767Z</time>
      </trkpt>
      <trkpt lat="43.66032" lon="3.31216">
        <ele>279.871957</ele>
        <time>2022-08-06T15:12:27.960Z</time>
      </trkpt>
      <trkpt lat="43.6604" lon="3.31282">
        <ele>270.334626</ele>
        <time>2022-08-06T15:12:37.407Z</time>
      </trkpt>
      <trkpt lat="43.66031" lon="3.31331">
        <ele>263.100129</ele>
        <time>2022-08-06T15:12:44.536Z</time>
      </trkpt>
      <trkpt lat="43.66019" lon="3.31353">
        <ele>259.358452</ele>
        <time>2022-08-06T15:12:48.426Z</time>
      </trkpt>
      <trkpt lat="43.65984" lon="3.31398">
        <ele>250.539921</ele>
        <time>2022-08-06T15:12:57.813Z</time>
      </trkpt>
      <trkpt lat="43.65938" lon="3.31469">
        <ele>237.990655</ele>
        <time>2022-08-06T15:13:11.502Z</time>
      </trkpt>
      <trkpt lat="43.65927" lon="3.31496">
        <ele>233.827177</ele>
        <time>2022-08-06T15:13:16.014Z</time>
      </trkpt>
      <trkpt lat="43.6593" lon="3.31514">
        <ele>231.378041</ele>
        <time>2022-08-06T15:13:18.639Z</time>
      </trkpt>
      <trkpt lat="43.65956" lon="3.31519">
        <ele>226.830844</ele>
        <time>2022-08-06T15:13:24.007Z</time>
      </trkpt>
      <trkpt lat="43.65869" lon="3.31588">
        <ele>210.880508</ele>
        <time>2022-08-06T15:13:44.393Z</time>
      </trkpt>
      <trkpt lat="43.65845" lon="3.3162">
        <ele>205.574971</ele>
        <time>2022-08-06T15:13:51.148Z</time>
      </trkpt>
      <trkpt lat="43.65832" lon="3.31694">
        <ele>197.069173</ele>
        <time>2022-08-06T15:14:02.113Z</time>
      </trkpt>
      <trkpt lat="43.65819" lon="3.31717">
        <ele>193.936559</ele>
        <time>2022-08-06T15:14:06.291Z</time>
      </trkpt>
      <trkpt lat="43.6576" lon="3.31785">
        <ele>182.513697</ele>
        <time>2022-08-06T15:14:21.663Z</time>
      </trkpt>
      <trkpt lat="43.65727" lon="3.31811">
        <ele>176.699929</ele>
        <time>2022-08-06T15:14:29.569Z</time>
      </trkpt>
      <trkpt lat="43.65699" lon="3.31811">
        <ele>173.009466</ele>
        <time>2022-08-06T15:14:35.350Z</time>
      </trkpt>
      <trkpt lat="43.65676" lon="3.31827">
        <ele>170.856816</ele>
        <time>2022-08-06T15:14:40.721Z</time>
      </trkpt>
      <trkpt lat="43.65654" lon="3.31818">
        <ele>168.91289</ele>
        <time>2022-08-06T15:14:43.632Z</time>
      </trkpt>
      <trkpt lat="43.6562" lon="3.31776">
        <ele>165.036334</ele>
        <time>2022-08-06T15:14:49.569Z</time>
      </trkpt>
      <trkpt lat="43.65568" lon="3.31781">
        <ele>160.538025</ele>
        <time>2022-08-06T15:14:56.664Z</time>
      </trkpt>
      <trkpt lat="43.65434" lon="3.31776">
        <ele>154.130033</ele>
        <time>2022-08-06T15:15:15.838Z</time>
      </trkpt>
      <trkpt lat="43.65411" lon="3.31821">
        <ele>152.570513</ele>
        <time>2022-08-06T15:15:22.051Z</time>
      </trkpt>
      <trkpt lat="43.65377" lon="3.31856">
        <ele>151.157846</ele>
        <time>2022-08-06T15:15:28.848Z</time>
      </trkpt>
      <trkpt lat="43.65416" lon="3.31894">
        <ele>150.368868</ele>
        <time>2022-08-06T15:15:36.404Z</time>
      </trkpt>
      <trkpt lat="43.65427" lon="3.31947">
        <ele>149.714199</ele>
        <time>2022-08-06T15:15:47.517Z</time>
      </trkpt>
      <trkpt lat="43.65428" lon="3.32023">
        <ele>148.803839</ele>
        <time>2022-08-06T15:16:03.085Z</time>
      </trkpt>
      <trkpt lat="43.65415" lon="3.32085">
        <ele>148.072821</ele>
        <time>2022-08-06T15:16:16.716Z</time>
      </trkpt>
      <trkpt lat="43.654" lon="3.32112">
        <ele>147.722681</ele>
        <time>2022-08-06T15:16:23.701Z</time>
      </trkpt>
      <trkpt lat="43.65395" lon="3.32121">
        <ele>147.607708</ele>
        <time>2022-08-06T15:16:26.023Z</time>
      </trkpt>
      <trkpt lat="43.65384" lon="3.32182">
        <ele>146.954125</ele>
        <time>2022-08-06T15:16:39.272Z</time>
      </trkpt>
      <trkpt lat="43.65383" lon="3.32244">
        <ele>146.309751</ele>
        <time>2022-08-06T15:16:52.193Z</time>
      </trkpt>
      <trkpt lat="43.65389" lon="3.32314">
        <ele>145.455967</ele>
        <time>2022-08-06T15:17:06.168Z</time>
      </trkpt>
      <trkpt lat="43.654" lon="3.32355">
        <ele>144.710453</ele>
        <time>2022-08-06T15:17:14.818Z</time>
      </trkpt>
      <trkpt lat="43.65358" lon="3.32387">
        <ele>143.567113</ele>
        <time>2022-08-06T15:17:27.886Z</time>
      </trkpt>
      <trkpt lat="43.65333" lon="3.32431">
        <ele>142.616054</ele>
        <time>2022-08-06T15:17:38.616Z</time>
      </trkpt>
      <trkpt lat="43.65331" lon="3.3246">
        <ele>142.133429</ele>
        <time>2022-08-06T15:17:41.852Z</time>
      </trkpt>
      <trkpt lat="43.65317" lon="3.32518">
        <ele>141.119792</ele>
        <time>2022-08-06T15:17:48.929Z</time>
      </trkpt>
      <trkpt lat="43.6531" lon="3.32543">
        <ele>140.697958</ele>
        <time>2022-08-06T15:17:51.924Z</time>
      </trkpt>
      <trkpt lat="43.65308" lon="3.32584">
        <ele>140.047885</ele>
        <time>2022-08-06T15:17:56.595Z</time>
      </trkpt>
      <trkpt lat="43.65335" lon="3.32765">
        <ele>137.503883</ele>
        <time>2022-08-06T15:18:18.670Z</time>
      </trkpt>
      <trkpt lat="43.65354" lon="3.32859">
        <ele>137.127843</ele>
        <time>2022-08-06T15:18:31.681Z</time>
      </trkpt>
      <trkpt lat="43.65355" lon="3.32863">
        <ele>137.111854</ele>
        <time>2022-08-06T15:18:32.243Z</time>
      </trkpt>
      <trkpt lat="43.65375" lon="3.32901">
        <ele>136.930937</ele>
        <time>2022-08-06T15:18:38.731Z</time>
      </trkpt>
      <trkpt lat="43.65365" lon="3.32925">
        <ele>136.825101</ele>
        <time>2022-08-06T15:18:44.020Z</time>
      </trkpt>
      <trkpt lat="43.65375" lon="3.32901">
        <ele>136.719266</ele>
        <time>2022-08-06T15:18:49.641Z</time>
      </trkpt>
      <trkpt lat="43.65378" lon="3.32906">
        <ele>136.693134</ele>
        <time>2022-08-06T15:18:50.782Z</time>
      </trkpt>
      <trkpt lat="43.65441" lon="3.32983">
        <ele>137.189816</ele>
        <time>2022-08-06T15:19:20.702Z</time>
      </trkpt>
      <trkpt lat="43.65459" lon="3.32988">
        <ele>137.307593</ele>
        <time>2022-08-06T15:19:27.175Z</time>
      </trkpt>
      <trkpt lat="43.65466" lon="3.33003">
        <ele>137.393303</ele>
        <time>2022-08-06T15:19:31.593Z</time>
      </trkpt>
      <trkpt lat="43.6548" lon="3.32996">
        <ele>137.491856</ele>
        <time>2022-08-06T15:19:37.328Z</time>
      </trkpt>
      <trkpt lat="43.65507" lon="3.33031">
        <ele>137.734119</ele>
        <time>2022-08-06T15:19:50.196Z</time>
      </trkpt>
      <trkpt lat="43.65529" lon="3.33084">
        <ele>137.859981</ele>
        <time>2022-08-06T15:20:05.024Z</time>
      </trkpt>
      <trkpt lat="43.6555" lon="3.33094">
        <ele>137.866335</ele>
        <time>2022-08-06T15:20:12.766Z</time>
      </trkpt>
      <trkpt lat="43.65564" lon="3.33123">
        <ele>137.873497</ele>
        <time>2022-08-06T15:20:21.003Z</time>
      </trkpt>
      <trkpt lat="43.6558" lon="3.33135">
        <ele>137.878712</ele>
        <time>2022-08-06T15:20:27.421Z</time>
      </trkpt>
      <trkpt lat="43.65594" lon="3.33167">
        <ele>137.886332</ele>
        <time>2022-08-06T15:20:35.609Z</time>
      </trkpt>
      <trkpt lat="43.65622" lon="3.33182">
        <ele>137.894832</ele>
        <time>2022-08-06T15:20:44.681Z</time>
      </trkpt>
      <trkpt lat="43.65628" lon="3.33211">
        <ele>137.901024</ele>
        <time>2022-08-06T15:20:51.280Z</time>
      </trkpt>
      <trkpt lat="43.65651" lon="3.33239">
        <ele>137.991205</ele>
        <time>2022-08-06T15:21:00.708Z</time>
      </trkpt>
      <trkpt lat="43.65655" lon="3.33257">
        <ele>138.046794</ele>
        <time>2022-08-06T15:21:04.993Z</time>
      </trkpt>
      <trkpt lat="43.65649" lon="3.33276">
        <ele>138.105411</ele>
        <time>2022-08-06T15:21:09.532Z</time>
      </trkpt>
      <trkpt lat="43.6568" lon="3.33337">
        <ele>138.3231</ele>
        <time>2022-08-06T15:21:26.906Z</time>
      </trkpt>
      <trkpt lat="43.65706" lon="3.33352">
        <ele>138.438059</ele>
        <time>2022-08-06T15:21:36.821Z</time>
      </trkpt>
      <trkpt lat="43.65734" lon="3.33397">
        <ele>138.611004</ele>
        <time>2022-08-06T15:21:52.891Z</time>
      </trkpt>
      <trkpt lat="43.65784" lon="3.33438">
        <ele>139.781009</ele>
        <time>2022-08-06T15:22:16.319Z</time>
      </trkpt>
      <trkpt lat="43.65847" lon="3.3345">
        <ele>141.154853</ele>
        <time>2022-08-06T15:22:43.311Z</time>
      </trkpt>
      <trkpt lat="43.65863" lon="3.33438">
        <ele>141.555244</ele>
        <time>2022-08-06T15:22:51.250Z</time>
      </trkpt>
      <trkpt lat="43.6588" lon="3.33438">
        <ele>141.919477</ele>
        <time>2022-08-06T15:22:59.468Z</time>
      </trkpt>
      <trkpt lat="43.65883" lon="3.33462">
        <ele>142.301952</ele>
        <time>2022-08-06T15:23:07.351Z</time>
      </trkpt>
      <trkpt lat="43.65905" lon="3.33478">
        <ele>142.89164</ele>
        <time>2022-08-06T15:23:18.924Z</time>
      </trkpt>
      <trkpt lat="43.65933" lon="3.33524">
        <ele>144.007737</ele>
        <time>2022-08-06T15:23:38.951Z</time>
      </trkpt>
      <trkpt lat="43.65948" lon="3.33531">
        <ele>144.422794</ele>
        <time>2022-08-06T15:23:46.587Z</time>
      </trkpt>
      <trkpt lat="43.65963" lon="3.33523">
        <ele>144.824315</ele>
        <time>2022-08-06T15:23:53.488Z</time>
      </trkpt>
      <trkpt lat="43.65996" lon="3.33529">
        <ele>145.66333</ele>
        <time>2022-08-06T15:24:08.209Z</time>
      </trkpt>
      <trkpt lat="43.66015" lon="3.33539">
        <ele>146.190196</ele>
        <time>2022-08-06T15:24:14.671Z</time>
      </trkpt>
      <trkpt lat="43.66034" lon="3.33535">
        <ele>146.695904</ele>
        <time>2022-08-06T15:24:20.572Z</time>
      </trkpt>
      <trkpt lat="43.66072" lon="3.33557">
        <ele>147.528546</ele>
        <time>2022-08-06T15:24:33.162Z</time>
      </trkpt>
      <trkpt lat="43.66111" lon="3.33561">
        <ele>148.19687</ele>
        <time>2022-08-06T15:24:45.630Z</time>
      </trkpt>
      <trkpt lat="43.66119" lon="3.33566">
        <ele>148.339818</ele>
        <time>2022-08-06T15:24:48.632Z</time>
      </trkpt>
      <trkpt lat="43.66125" lon="3.33591">
        <ele>148.662758</ele>
        <time>2022-08-06T15:24:53.919Z</time>
      </trkpt>
      <trkpt lat="43.66136" lon="3.33606">
        <ele>148.926865</ele>
        <time>2022-08-06T15:24:58.986Z</time>
      </trkpt>
      <trkpt lat="43.66201" lon="3.3361">
        <ele>150.035276</ele>
        <time>2022-08-06T15:25:16.237Z</time>
      </trkpt>
      <trkpt lat="43.66225" lon="3.33622">
        <ele>150.026116</ele>
        <time>2022-08-06T15:25:22.305Z</time>
      </trkpt>
      <trkpt lat="43.66242" lon="3.33623">
        <ele>149.893639</ele>
        <time>2022-08-06T15:25:27.105Z</time>
      </trkpt>
      <trkpt lat="43.66262" lon="3.33642">
        <ele>149.696266</ele>
        <time>2022-08-06T15:25:34.473Z</time>
      </trkpt>
      <trkpt lat="43.66287" lon="3.33646">
        <ele>149.495784</ele>
        <time>2022-08-06T15:25:42.022Z</time>
      </trkpt>
      <trkpt lat="43.66312" lon="3.33659">
        <ele>149.277147</ele>
        <time>2022-08-06T15:25:50.069Z</time>
      </trkpt>
      <trkpt lat="43.66323" lon="3.33683">
        <ele>149.114619</ele>
        <time>2022-08-06T15:25:55.811Z</time>
      </trkpt>
      <trkpt lat="43.66354" lon="3.33687">
        <ele>148.870214</ele>
        <time>2022-08-06T15:26:04.062Z</time>
      </trkpt>
      <trkpt lat="43.66381" lon="3.33679">
        <ele>148.5727</ele>
        <time>2022-08-06T15:26:11.803Z</time>
      </trkpt>
      <trkpt lat="43.66384" lon="3.3372">
        <ele>148.107174</ele>
        <time>2022-08-06T15:26:16.374Z</time>
      </trkpt>
      <trkpt lat="43.66362" lon="3.33781">
        <ele>147.331213</ele>
        <time>2022-08-06T15:26:24.391Z</time>
      </trkpt>
      <trkpt lat="43.6636" lon="3.3381">
        <ele>147.00504</ele>
        <time>2022-08-06T15:26:27.748Z</time>
      </trkpt>
      <trkpt lat="43.6636" lon="3.33817">
        <ele>146.926021</ele>
        <time>2022-08-06T15:26:28.904Z</time>
      </trkpt>
      <trkpt lat="43.66352" lon="3.33831">
        <ele>146.736349</ele>
        <time>2022-08-06T15:26:30.887Z</time>
      </trkpt>
      <trkpt lat="43.66334" lon="3.33833">
        <ele>146.453026</ele>
        <time>2022-08-06T15:26:33.933Z</time>
      </trkpt>
      <trkpt lat="43.66313" lon="3.33865">
        <ele>145.962617</ele>
        <time>2022-08-06T15:26:39.623Z</time>
      </trkpt>
      <trkpt lat="43.66285" lon="3.33884">
        <ele>146.701325</ele>
        <time>2022-08-06T15:26:47.908Z</time>
      </trkpt>
      <trkpt lat="43.66265" lon="3.33952">
        <ele>148.120163</ele>
        <time>2022-08-06T15:27:05.347Z</time>
      </trkpt>
      <trkpt lat="43.66278" lon="3.33932">
        <ele>148.63545</ele>
        <time>2022-08-06T15:27:13.944Z</time>
      </trkpt>
      <trkpt lat="43.66297" lon="3.33934">
        <ele>149.140918</ele>
        <time>2022-08-06T15:27:23.329Z</time>
      </trkpt>
      <trkpt lat="43.66303" lon="3.33935">
        <ele>149.300352</ele>
        <time>2022-08-06T15:27:25.936Z</time>
      </trkpt>
      <trkpt lat="43.66335" lon="3.3396">
        <ele>150.291908</ele>
        <time>2022-08-06T15:27:44.850Z</time>
      </trkpt>
      <trkpt lat="43.66357" lon="3.33946">
        <ele>151.157606</ele>
        <time>2022-08-06T15:27:58.437Z</time>
      </trkpt>
      <trkpt lat="43.66389" lon="3.3395">
        <ele>153.096011</ele>
        <time>2022-08-06T15:28:16.492Z</time>
      </trkpt>
      <trkpt lat="43.66422" lon="3.33888">
        <ele>156.391966</ele>
        <time>2022-08-06T15:28:49.533Z</time>
      </trkpt>
      <trkpt lat="43.66467" lon="3.33883">
        <ele>159.065229</ele>
        <time>2022-08-06T15:29:19.005Z</time>
      </trkpt>
      <trkpt lat="43.66493" lon="3.33851">
        <ele>161.073369</ele>
        <time>2022-08-06T15:29:41.401Z</time>
      </trkpt>
      <trkpt lat="43.66531" lon="3.33826">
        <ele>164.16807</ele>
        <time>2022-08-06T15:30:10.123Z</time>
      </trkpt>
      <trkpt lat="43.66537" lon="3.33826">
        <ele>164.636292</ele>
        <time>2022-08-06T15:30:15.082Z</time>
      </trkpt>
      <trkpt lat="43.66564" lon="3.33829">
        <ele>166.690303</ele>
        <time>2022-08-06T15:30:33.895Z</time>
      </trkpt>
      <trkpt lat="43.66649" lon="3.33815">
        <ele>173.168373</ele>
        <time>2022-08-06T15:31:37.317Z</time>
      </trkpt>
      <trkpt lat="43.66662" lon="3.33787">
        <ele>174.95284</ele>
        <time>2022-08-06T15:31:52.961Z</time>
      </trkpt>
      <trkpt lat="43.66686" lon="3.3376">
        <ele>176.359273</ele>
        <time>2022-08-06T15:32:12.463Z</time>
      </trkpt>
      <trkpt lat="43.66695" lon="3.33736">
        <ele>177.274992</ele>
        <time>2022-08-06T15:32:24.797Z</time>
      </trkpt>
      <trkpt lat="43.66749" lon="3.33681">
        <ele>180.322423</ele>
        <time>2022-08-06T15:33:02.121Z</time>
      </trkpt>
      <trkpt lat="43.66771" lon="3.33649">
        <ele>181.754377</ele>
        <time>2022-08-06T15:33:17.072Z</time>
      </trkpt>
      <trkpt lat="43.66781" lon="3.33589">
        <ele>183.112129</ele>
        <time>2022-08-06T15:33:37.783Z</time>
      </trkpt>
      <trkpt lat="43.66801" lon="3.33565">
        <ele>183.08092</ele>
        <time>2022-08-06T15:33:46.881Z</time>
      </trkpt>
      <trkpt lat="43.66814" lon="3.33571">
        <ele>183.065609</ele>
        <time>2022-08-06T15:33:52.928Z</time>
      </trkpt>
      <trkpt lat="43.66831" lon="3.33561">
        <ele>183.043946</ele>
        <time>2022-08-06T15:33:58.581Z</time>
      </trkpt>
      <trkpt lat="43.66878" lon="3.33561">
        <ele>182.989742</ele>
        <time>2022-08-06T15:34:13.311Z</time>
      </trkpt>
      <trkpt lat="43.66902" lon="3.33551">
        <ele>182.960027</ele>
        <time>2022-08-06T15:34:20.659Z</time>
      </trkpt>
      <trkpt lat="43.66989" lon="3.33557">
        <ele>180.346572</ele>
        <time>2022-08-06T15:34:44.069Z</time>
      </trkpt>
      <trkpt lat="43.67011" lon="3.33564">
        <ele>179.265776</ele>
        <time>2022-08-06T15:34:49.391Z</time>
      </trkpt>
      <trkpt lat="43.67019" lon="3.3356">
        <ele>178.855257</ele>
        <time>2022-08-06T15:34:51.391Z</time>
      </trkpt>
      <trkpt lat="43.67032" lon="3.33527">
        <ele>177.518854</ele>
        <time>2022-08-06T15:34:57.738Z</time>
      </trkpt>
      <trkpt lat="43.67041" lon="3.33522">
        <ele>177.026663</ele>
        <time>2022-08-06T15:35:00.080Z</time>
      </trkpt>
      <trkpt lat="43.67083" lon="3.3352">
        <ele>174.99591</ele>
        <time>2022-08-06T15:35:09.685Z</time>
      </trkpt>
      <trkpt lat="43.67122" lon="3.33504">
        <ele>172.883048</ele>
        <time>2022-08-06T15:35:19.138Z</time>
      </trkpt>
      <trkpt lat="43.67155" lon="3.33499">
        <ele>171.107807</ele>
        <time>2022-08-06T15:35:26.814Z</time>
      </trkpt>
      <trkpt lat="43.67175" lon="3.33486">
        <ele>169.914543</ele>
        <time>2022-08-06T15:35:32.058Z</time>
      </trkpt>
      <trkpt lat="43.67226" lon="3.33519">
        <ele>166.911055</ele>
        <time>2022-08-06T15:35:45.390Z</time>
      </trkpt>
      <trkpt lat="43.67242" lon="3.33504">
        <ele>165.87322</ele>
        <time>2022-08-06T15:35:50.091Z</time>
      </trkpt>
      <trkpt lat="43.67267" lon="3.33506">
        <ele>164.535174</ele>
        <time>2022-08-06T15:35:56.213Z</time>
      </trkpt>
      <trkpt lat="43.67276" lon="3.3352">
        <ele>164.082385</ele>
        <time>2022-08-06T15:35:59.643Z</time>
      </trkpt>
      <trkpt lat="43.67304" lon="3.33537">
        <ele>163.135937</ele>
        <time>2022-08-06T15:36:07.311Z</time>
      </trkpt>
      <trkpt lat="43.6731" lon="3.33553">
        <ele>162.7417</ele>
        <time>2022-08-06T15:36:10.546Z</time>
      </trkpt>
      <trkpt lat="43.67328" lon="3.33561">
        <ele>162.134191</ele>
        <time>2022-08-06T15:36:15.662Z</time>
      </trkpt>
      <trkpt lat="43.67352" lon="3.33603">
        <ele>160.945113</ele>
        <time>2022-08-06T15:36:25.783Z</time>
      </trkpt>
      <trkpt lat="43.67366" lon="3.33617">
        <ele>160.388209</ele>
        <time>2022-08-06T15:36:30.577Z</time>
      </trkpt>
      <trkpt lat="43.67376" lon="3.33645">
        <ele>159.682888</ele>
        <time>2022-08-06T15:36:36.385Z</time>
      </trkpt>
      <trkpt lat="43.6742" lon="3.33633">
        <ele>158.517905</ele>
        <time>2022-08-06T15:36:48.178Z</time>
      </trkpt>
      <trkpt lat="43.67427" lon="3.33634">
        <ele>158.380759</ele>
        <time>2022-08-06T15:36:50.405Z</time>
      </trkpt>
      <trkpt lat="43.67432" lon="3.33646">
        <ele>158.197272</ele>
        <time>2022-08-06T15:36:53.268Z</time>
      </trkpt>
      <trkpt lat="43.6744" lon="3.33651">
        <ele>158.037407</ele>
        <time>2022-08-06T15:36:55.478Z</time>
      </trkpt>
      <trkpt lat="43.67462" lon="3.33627">
        <ele>157.51201</ele>
        <time>2022-08-06T15:37:03.331Z</time>
      </trkpt>
      <trkpt lat="43.67476" lon="3.33622">
        <ele>157.248853</ele>
        <time>2022-08-06T15:37:06.954Z</time>
      </trkpt>
      <trkpt lat="43.67495" lon="3.33628">
        <ele>156.875935</ele>
        <time>2022-08-06T15:37:13.006Z</time>
      </trkpt>
      <trkpt lat="43.67503" lon="3.33651">
        <ele>156.522842</ele>
        <time>2022-08-06T15:37:17.956Z</time>
      </trkpt>
      <trkpt lat="43.67507" lon="3.33682">
        <ele>156.09825</ele>
        <time>2022-08-06T15:37:24.996Z</time>
      </trkpt>
      <trkpt lat="43.67534" lon="3.33729">
        <ele>155.185206</ele>
        <time>2022-08-06T15:37:37.044Z</time>
      </trkpt>
      <trkpt lat="43.67535" lon="3.33752">
        <ele>154.735931</ele>
        <time>2022-08-06T15:37:41.823Z</time>
      </trkpt>
      <trkpt lat="43.67546" lon="3.33799">
        <ele>153.73849</ele>
        <time>2022-08-06T15:37:51.773Z</time>
      </trkpt>
      <trkpt lat="43.67544" lon="3.33822">
        <ele>153.28471</ele>
        <time>2022-08-06T15:37:56.080Z</time>
      </trkpt>
      <trkpt lat="43.67554" lon="3.33827">
        <ele>152.990708</ele>
        <time>2022-08-06T15:37:58.740Z</time>
      </trkpt>
      <trkpt lat="43.67552" lon="3.33844">
        <ele>152.65436</ele>
        <time>2022-08-06T15:38:02.232Z</time>
      </trkpt>
      <trkpt lat="43.67564" lon="3.33858">
        <ele>152.214916</ele>
        <time>2022-08-06T15:38:06.480Z</time>
      </trkpt>
      <trkpt lat="43.67562" lon="3.33902">
        <ele>151.338252</ele>
        <time>2022-08-06T15:38:14.550Z</time>
      </trkpt>
      <trkpt lat="43.67575" lon="3.33969">
        <ele>149.547171</ele>
        <time>2022-08-06T15:38:27.055Z</time>
      </trkpt>
      <trkpt lat="43.67638" lon="3.3406">
        <ele>145.266933</ele>
        <time>2022-08-06T15:38:49.087Z</time>
      </trkpt>
      <trkpt lat="43.67651" lon="3.34066">
        <ele>144.626313</ele>
        <time>2022-08-06T15:38:52.415Z</time>
      </trkpt>
      <trkpt lat="43.67664" lon="3.3406">
        <ele>143.988992</ele>
        <time>2022-08-06T15:38:55.650Z</time>
      </trkpt>
      <trkpt lat="43.67705" lon="3.34091">
        <ele>141.870693</ele>
        <time>2022-08-06T15:39:06.916Z</time>
      </trkpt>
      <trkpt lat="43.67719" lon="3.34121">
        <ele>140.892276</ele>
        <time>2022-08-06T15:39:13.157Z</time>
      </trkpt>
      <trkpt lat="43.67742" lon="3.34155">
        <ele>139.630053</ele>
        <time>2022-08-06T15:39:21.326Z</time>
      </trkpt>
      <trkpt lat="43.6779" lon="3.34256">
        <ele>136.363986</ele>
        <time>2022-08-06T15:39:43.568Z</time>
      </trkpt>
      <trkpt lat="43.6779" lon="3.34319">
        <ele>135.355119</ele>
        <time>2022-08-06T15:39:55.593Z</time>
      </trkpt>
      <trkpt lat="43.6779" lon="3.34344">
        <ele>135.311562</ele>
        <time>2022-08-06T15:40:01.061Z</time>
      </trkpt>
      <trkpt lat="43.67773" lon="3.34448">
        <ele>135.129784</ele>
        <time>2022-08-06T15:40:24.354Z</time>
      </trkpt>
      <trkpt lat="43.67754" lon="3.34482">
        <ele>135.056278</ele>
        <time>2022-08-06T15:40:34.700Z</time>
      </trkpt>
      <trkpt lat="43.67686" lon="3.34519">
        <ele>136.060915</ele>
        <time>2022-08-06T15:41:05.845Z</time>
      </trkpt>
      <trkpt lat="43.67672" lon="3.34545">
        <ele>136.704473</ele>
        <time>2022-08-06T15:41:16.525Z</time>
      </trkpt>
      <trkpt lat="43.67653" lon="3.34558">
        <ele>137.299823</ele>
        <time>2022-08-06T15:41:26.650Z</time>
      </trkpt>
      <trkpt lat="43.67637" lon="3.34587">
        <ele>138.021097</ele>
        <time>2022-08-06T15:41:39.421Z</time>
      </trkpt>
      <trkpt lat="43.67605" lon="3.34596">
        <ele>138.92128</ele>
        <time>2022-08-06T15:41:55.312Z</time>
      </trkpt>
      <trkpt lat="43.67563" lon="3.3464">
        <ele>140.256088</ele>
        <time>2022-08-06T15:42:19.908Z</time>
      </trkpt>
      <trkpt lat="43.6755" lon="3.34677">
        <ele>140.84176</ele>
        <time>2022-08-06T15:42:33.323Z</time>
      </trkpt>
      <trkpt lat="43.67515" lon="3.34731">
        <ele>141.888601</ele>
        <time>2022-08-06T15:42:56.813Z</time>
      </trkpt>
      <trkpt lat="43.67515" lon="3.34827">
        <ele>143.259199</ele>
        <time>2022-08-06T15:43:24.020Z</time>
      </trkpt>
      <trkpt lat="43.67503" lon="3.34869">
        <ele>143.432129</ele>
        <time>2022-08-06T15:43:35.193Z</time>
      </trkpt>
      <trkpt lat="43.67468" lon="3.349">
        <ele>143.2463</ele>
        <time>2022-08-06T15:43:48.326Z</time>
      </trkpt>
      <trkpt lat="43.67452" lon="3.34926">
        <ele>143.137795</ele>
        <time>2022-08-06T15:43:55.602Z</time>
      </trkpt>
      <trkpt lat="43.67397" lon="3.34991">
        <ele>142.812281</ele>
        <time>2022-08-06T15:44:17.033Z</time>
      </trkpt>
      <trkpt lat="43.67383" lon="3.35019">
        <ele>142.696135</ele>
        <time>2022-08-06T15:44:24.147Z</time>
      </trkpt>
      <trkpt lat="43.67383" lon="3.35031">
        <ele>142.637701</ele>
        <time>2022-08-06T15:44:26.652Z</time>
      </trkpt>
      <trkpt lat="43.67381" lon="3.35067">
        <ele>142.461405</ele>
        <time>2022-08-06T15:44:34.265Z</time>
      </trkpt>
      <trkpt lat="43.67359" lon="3.35098">
        <ele>142.252049</ele>
        <time>2022-08-06T15:44:43.287Z</time>
      </trkpt>
      <trkpt lat="43.67328" lon="3.35181">
        <ele>141.797914</ele>
        <time>2022-08-06T15:45:03.501Z</time>
      </trkpt>
      <trkpt lat="43.67246" lon="3.35235">
        <ele>141.649455</ele>
        <time>2022-08-06T15:45:33.191Z</time>
      </trkpt>
      <trkpt lat="43.67228" lon="3.35256">
        <ele>141.713375</ele>
        <time>2022-08-06T15:45:40.792Z</time>
      </trkpt>
      <trkpt lat="43.67191" lon="3.35333">
        <ele>141.898174</ele>
        <time>2022-08-06T15:46:03.465Z</time>
      </trkpt>
      <trkpt lat="43.67142" lon="3.35373">
        <ele>141.904794</ele>
        <time>2022-08-06T15:46:23.060Z</time>
      </trkpt>
      <trkpt lat="43.67138" lon="3.35374">
        <ele>141.878581</ele>
        <time>2022-08-06T15:46:24.311Z</time>
      </trkpt>
      <trkpt lat="43.6714" lon="3.35391">
        <ele>141.788772</ele>
        <time>2022-08-06T15:46:28.370Z</time>
      </trkpt>
      <trkpt lat="43.67078" lon="3.35415">
        <ele>141.340125</ele>
        <time>2022-08-06T15:46:48.186Z</time>
      </trkpt>
      <trkpt lat="43.67067" lon="3.35456">
        <ele>141.120126</ele>
        <time>2022-08-06T15:46:57.306Z</time>
      </trkpt>
      <trkpt lat="43.67057" lon="3.35472">
        <ele>141.014875</ele>
        <time>2022-08-06T15:47:01.420Z</time>
      </trkpt>
      <trkpt lat="43.67043" lon="3.35466">
        <ele>140.907872</ele>
        <time>2022-08-06T15:47:05.837Z</time>
      </trkpt>
      <trkpt lat="43.6704" lon="3.35473">
        <ele>140.865705</ele>
        <time>2022-08-06T15:47:07.585Z</time>
      </trkpt>
      <trkpt lat="43.67012" lon="3.35519">
        <ele>140.410051</ele>
        <time>2022-08-06T15:47:19.818Z</time>
      </trkpt>
      <trkpt lat="43.6701" lon="3.35522">
        <ele>140.37568</ele>
        <time>2022-08-06T15:47:20.468Z</time>
      </trkpt>
      <trkpt lat="43.66975" lon="3.35517">
        <ele>139.937954</ele>
        <time>2022-08-06T15:47:30.420Z</time>
      </trkpt>
      <trkpt lat="43.66926" lon="3.35531">
        <ele>139.323542</ele>
        <time>2022-08-06T15:47:44.379Z</time>
      </trkpt>
      <trkpt lat="43.66912" lon="3.35565">
        <ele>138.973531</ele>
        <time>2022-08-06T15:47:52.446Z</time>
      </trkpt>
      <trkpt lat="43.66868" lon="3.35653">
        <ele>138.534467</ele>
        <time>2022-08-06T15:48:15.913Z</time>
      </trkpt>
      <trkpt lat="43.66821" lon="3.35721">
        <ele>138.561414</ele>
        <time>2022-08-06T15:48:38.994Z</time>
      </trkpt>
      <trkpt lat="43.66766" lon="3.35753">
        <ele>138.584911</ele>
        <time>2022-08-06T15:48:58.858Z</time>
      </trkpt>
      <trkpt lat="43.66755" lon="3.35768">
        <ele>138.594056</ele>
        <time>2022-08-06T15:49:03.669Z</time>
      </trkpt>
      <trkpt lat="43.66753" lon="3.35771">
        <ele>138.598389</ele>
        <time>2022-08-06T15:49:05.001Z</time>
      </trkpt>
      <trkpt lat="43.66713" lon="3.35828">
        <ele>138.668504</ele>
        <time>2022-08-06T15:49:23.189Z</time>
      </trkpt>
      <trkpt lat="43.6666" lon="3.359">
        <ele>138.760547</ele>
        <time>2022-08-06T15:49:46.702Z</time>
      </trkpt>
      <trkpt lat="43.66649" lon="3.35905">
        <ele>138.774852</ele>
        <time>2022-08-06T15:49:50.477Z</time>
      </trkpt>
      <trkpt lat="43.6663" lon="3.35937">
        <ele>138.815616</ele>
        <time>2022-08-06T15:50:00.517Z</time>
      </trkpt>
      <trkpt lat="43.66627" lon="3.35959">
        <ele>138.92414</ele>
        <time>2022-08-06T15:50:05.756Z</time>
      </trkpt>
      <trkpt lat="43.66586" lon="3.36017">
        <ele>139.321896</ele>
        <time>2022-08-06T15:50:25.275Z</time>
      </trkpt>
      <trkpt lat="43.66582" lon="3.36038">
        <ele>139.433081</ele>
        <time>2022-08-06T15:50:31.071Z</time>
      </trkpt>
      <trkpt lat="43.66596" lon="3.36066">
        <ele>139.601171</ele>
        <time>2022-08-06T15:50:39.830Z</time>
      </trkpt>
      <trkpt lat="43.66616" lon="3.36087">
        <ele>139.772364</ele>
        <time>2022-08-06T15:50:49.210Z</time>
      </trkpt>
      <trkpt lat="43.66627" lon="3.36128">
        <ele>139.99399</ele>
        <time>2022-08-06T15:51:01.280Z</time>
      </trkpt>
      <trkpt lat="43.66619" lon="3.36158">
        <ele>140.157582</ele>
        <time>2022-08-06T15:51:09.921Z</time>
      </trkpt>
      <trkpt lat="43.66618" lon="3.3619">
        <ele>140.316655</ele>
        <time>2022-08-06T15:51:18.305Z</time>
      </trkpt>
      <trkpt lat="43.6663" lon="3.36211">
        <ele>140.453348</ele>
        <time>2022-08-06T15:51:25.662Z</time>
      </trkpt>
      <trkpt lat="43.66634" lon="3.36244">
        <ele>140.625782</ele>
        <time>2022-08-06T15:51:34.628Z</time>
      </trkpt>
      <trkpt lat="43.6663" lon="3.36266">
        <ele>140.738589</ele>
        <time>2022-08-06T15:51:40.536Z</time>
      </trkpt>
      <trkpt lat="43.66569" lon="3.36278">
        <ele>141.172727</ele>
        <time>2022-08-06T15:52:01.418Z</time>
      </trkpt>
      <trkpt lat="43.66546" lon="3.36312">
        <ele>141.313894</ele>
        <time>2022-08-06T15:52:12.106Z</time>
      </trkpt>
      <trkpt lat="43.66542" lon="3.36335">
        <ele>141.314622</ele>
        <time>2022-08-06T15:52:17.733Z</time>
      </trkpt>
      <trkpt lat="43.66551" lon="3.36405">
        <ele>141.31672</ele>
        <time>2022-08-06T15:52:33.813Z</time>
      </trkpt>
      <trkpt lat="43.6655" lon="3.36437">
        <ele>141.317676</ele>
        <time>2022-08-06T15:52:41.145Z</time>
      </trkpt>
      <trkpt lat="43.6652" lon="3.36494">
        <ele>141.319753</ele>
        <time>2022-08-06T15:52:57.100Z</time>
      </trkpt>
      <trkpt lat="43.66499" lon="3.36525">
        <ele>141.339434</ele>
        <time>2022-08-06T15:53:07.079Z</time>
      </trkpt>
      <trkpt lat="43.66488" lon="3.36569">
        <ele>141.422099</ele>
        <time>2022-08-06T15:53:17.876Z</time>
      </trkpt>
      <trkpt lat="43.66491" lon="3.36577">
        <ele>141.439569</ele>
        <time>2022-08-06T15:53:20.193Z</time>
      </trkpt>
      <trkpt lat="43.66485" lon="3.36594">
        <ele>141.47426</ele>
        <time>2022-08-06T15:53:24.812Z</time>
      </trkpt>
      <trkpt lat="43.6647" lon="3.36606">
        <ele>141.515772</ele>
        <time>2022-08-06T15:53:30.367Z</time>
      </trkpt>
      <trkpt lat="43.66452" lon="3.36679">
        <ele>141.65546</ele>
        <time>2022-08-06T15:53:49.267Z</time>
      </trkpt>
      <trkpt lat="43.6644" lon="3.367">
        <ele>141.7027</ele>
        <time>2022-08-06T15:53:55.689Z</time>
      </trkpt>
      <trkpt lat="43.66424" lon="3.36774">
        <ele>141.730536</ele>
        <time>2022-08-06T15:54:14.376Z</time>
      </trkpt>
      <trkpt lat="43.66423" lon="3.36826">
        <ele>141.685476</ele>
        <time>2022-08-06T15:54:26.520Z</time>
      </trkpt>
      <trkpt lat="43.66376" lon="3.36916">
        <ele>141.588092</ele>
        <time>2022-08-06T15:54:51.764Z</time>
      </trkpt>
      <trkpt lat="43.66363" lon="3.36949">
        <ele>141.555316</ele>
        <time>2022-08-06T15:55:00.072Z</time>
      </trkpt>
      <trkpt lat="43.66356" lon="3.36986">
        <ele>141.332378</ele>
        <time>2022-08-06T15:55:08.268Z</time>
      </trkpt>
      <trkpt lat="43.6632" lon="3.37037">
        <ele>140.84565</ele>
        <time>2022-08-06T15:55:23.208Z</time>
      </trkpt>
      <trkpt lat="43.66296" lon="3.37061">
        <ele>140.55647</ele>
        <time>2022-08-06T15:55:32.096Z</time>
      </trkpt>
      <trkpt lat="43.66286" lon="3.37086">
        <ele>140.356168</ele>
        <time>2022-08-06T15:55:38.133Z</time>
      </trkpt>
      <trkpt lat="43.66281" lon="3.37105">
        <ele>140.221597</ele>
        <time>2022-08-06T15:55:42.254Z</time>
      </trkpt>
      <trkpt lat="43.66289" lon="3.37165">
        <ele>139.803976</ele>
        <time>2022-08-06T15:55:54.992Z</time>
      </trkpt>
      <trkpt lat="43.66275" lon="3.37254">
        <ele>139.282022</ele>
        <time>2022-08-06T15:56:14.265Z</time>
      </trkpt>
      <trkpt lat="43.66263" lon="3.37283">
        <ele>139.096564</ele>
        <time>2022-08-06T15:56:21.154Z</time>
      </trkpt>
      <trkpt lat="43.66262" lon="3.37297">
        <ele>139.012679</ele>
        <time>2022-08-06T15:56:24.320Z</time>
      </trkpt>
      <trkpt lat="43.66267" lon="3.3733">
        <ele>138.822708</ele>
        <time>2022-08-06T15:56:31.514Z</time>
      </trkpt>
      <trkpt lat="43.66251" lon="3.37389">
        <ele>138.463936</ele>
        <time>2022-08-06T15:56:45.585Z</time>
      </trkpt>
      <trkpt lat="43.6626" lon="3.37433">
        <ele>138.509668</ele>
        <time>2022-08-06T15:56:55.987Z</time>
      </trkpt>
      <trkpt lat="43.66274" lon="3.3746">
        <ele>138.590399</ele>
        <time>2022-08-06T15:57:03.725Z</time>
      </trkpt>
      <trkpt lat="43.6627" lon="3.37486">
        <ele>138.655614</ele>
        <time>2022-08-06T15:57:10.102Z</time>
      </trkpt>
      <trkpt lat="43.66271" lon="3.37523">
        <ele>138.745196</ele>
        <time>2022-08-06T15:57:18.901Z</time>
      </trkpt>
      <trkpt lat="43.66285" lon="3.37551">
        <ele>138.827294</ele>
        <time>2022-08-06T15:57:27.157Z</time>
      </trkpt>
      <trkpt lat="43.66284" lon="3.37587">
        <ele>138.915054</ele>
        <time>2022-08-06T15:57:36.253Z</time>
      </trkpt>
      <trkpt lat="43.66271" lon="3.37631">
        <ele>139.065667</ele>
        <time>2022-08-06T15:57:48.498Z</time>
      </trkpt>
      <trkpt lat="43.66279" lon="3.37673">
        <ele>139.573043</ele>
        <time>2022-08-06T15:58:00.234Z</time>
      </trkpt>
      <trkpt lat="43.66259" lon="3.37725">
        <ele>140.253479</ele>
        <time>2022-08-06T15:58:16.826Z</time>
      </trkpt>
      <trkpt lat="43.66252" lon="3.37781">
        <ele>140.925113</ele>
        <time>2022-08-06T15:58:33.595Z</time>
      </trkpt>
      <trkpt lat="43.66231" lon="3.37806">
        <ele>141.374064</ele>
        <time>2022-08-06T15:58:45.202Z</time>
      </trkpt>
      <trkpt lat="43.66208" lon="3.37851">
        <ele>142.013271</ele>
        <time>2022-08-06T15:59:01.660Z</time>
      </trkpt>
      <trkpt lat="43.66209" lon="3.37886">
        <ele>142.464788</ele>
        <time>2022-08-06T15:59:12.855Z</time>
      </trkpt>
      <trkpt lat="43.66205" lon="3.37905">
        <ele>142.710069</ele>
        <time>2022-08-06T15:59:18.550Z</time>
      </trkpt>
      <trkpt lat="43.66207" lon="3.37931">
        <ele>143.051537</ele>
        <time>2022-08-06T15:59:27.227Z</time>
      </trkpt>
      <trkpt lat="43.66189" lon="3.37929">
        <ele>143.377628</ele>
        <time>2022-08-06T15:59:34.835Z</time>
      </trkpt>
      <trkpt lat="43.66178" lon="3.37939">
        <ele>143.602486</ele>
        <time>2022-08-06T15:59:40.546Z</time>
      </trkpt>
      <trkpt lat="43.66164" lon="3.37987">
        <ele>144.265798</ele>
        <time>2022-08-06T15:59:56.037Z</time>
      </trkpt>
      <trkpt lat="43.66161" lon="3.38003">
        <ele>144.470237</ele>
        <time>2022-08-06T16:00:00.446Z</time>
      </trkpt>
      <trkpt lat="43.66164" lon="3.38036">
        <ele>144.894103</ele>
        <time>2022-08-06T16:00:10.056Z</time>
      </trkpt>
      <trkpt lat="43.66176" lon="3.38063">
        <ele>145.044924</ele>
        <time>2022-08-06T16:00:18.463Z</time>
      </trkpt>
      <trkpt lat="43.66182" lon="3.38101">
        <ele>144.967443</ele>
        <time>2022-08-06T16:00:28.114Z</time>
      </trkpt>
      <trkpt lat="43.66184" lon="3.38116">
        <ele>144.936906</ele>
        <time>2022-08-06T16:00:31.759Z</time>
      </trkpt>
      <trkpt lat="43.66147" lon="3.38182">
        <ele>144.76877</ele>
        <time>2022-08-06T16:00:50.432Z</time>
      </trkpt>
      <trkpt lat="43.66152" lon="3.38253">
        <ele>144.625174</ele>
        <time>2022-08-06T16:01:05.543Z</time>
      </trkpt>
      <trkpt lat="43.66143" lon="3.38273">
        <ele>144.572317</ele>
        <time>2022-08-06T16:01:10.323Z</time>
      </trkpt>
      <trkpt lat="43.66136" lon="3.38342">
        <ele>143.989085</ele>
        <time>2022-08-06T16:01:24.778Z</time>
      </trkpt>
      <trkpt lat="43.66139" lon="3.38351">
        <ele>143.905529</ele>
        <time>2022-08-06T16:01:26.704Z</time>
      </trkpt>
      <trkpt lat="43.66136" lon="3.38365">
        <ele>143.782884</ele>
        <time>2022-08-06T16:01:29.513Z</time>
      </trkpt>
      <trkpt lat="43.66114" lon="3.38381">
        <ele>143.50367</ele>
        <time>2022-08-06T16:01:36.451Z</time>
      </trkpt>
      <trkpt lat="43.66109" lon="3.38411">
        <ele>143.248434</ele>
        <time>2022-08-06T16:01:42.861Z</time>
      </trkpt>
      <trkpt lat="43.66096" lon="3.38436">
        <ele>142.987278</ele>
        <time>2022-08-06T16:01:49.326Z</time>
      </trkpt>
      <trkpt lat="43.66094" lon="3.3846">
        <ele>142.789544</ele>
        <time>2022-08-06T16:01:54.566Z</time>
      </trkpt>
      <trkpt lat="43.66103" lon="3.38503">
        <ele>142.656586</ele>
        <time>2022-08-06T16:02:04.268Z</time>
      </trkpt>
      <trkpt lat="43.66093" lon="3.38536">
        <ele>143.087326</ele>
        <time>2022-08-06T16:02:11.893Z</time>
      </trkpt>
      <trkpt lat="43.66076" lon="3.38627">
        <ele>144.239329</ele>
        <time>2022-08-06T16:02:37.438Z</time>
      </trkpt>
      <trkpt lat="43.66078" lon="3.38666">
        <ele>144.714627</ele>
        <time>2022-08-06T16:02:50.081Z</time>
      </trkpt>
      <trkpt lat="43.66064" lon="3.38723">
        <ele>145.440362</ele>
        <time>2022-08-06T16:03:10.895Z</time>
      </trkpt>
      <trkpt lat="43.66069" lon="3.3876">
        <ele>146.631218</ele>
        <time>2022-08-06T16:03:25.439Z</time>
      </trkpt>
      <trkpt lat="43.66062" lon="3.38797">
        <ele>148.041587</ele>
        <time>2022-08-06T16:03:40.784Z</time>
      </trkpt>
      <trkpt lat="43.66121" lon="3.38737">
        <ele>151.773612</ele>
        <time>2022-08-06T16:04:20.793Z</time>
      </trkpt>
      <trkpt lat="43.66128" lon="3.38733">
        <ele>152.144338</ele>
        <time>2022-08-06T16:04:25.324Z</time>
      </trkpt>
      <trkpt lat="43.66131" lon="3.38744">
        <ele>152.568011</ele>
        <time>2022-08-06T16:04:30.859Z</time>
      </trkpt>
      <trkpt lat="43.66109" lon="3.3885">
        <ele>157.910966</ele>
        <time>2022-08-06T16:05:23.382Z</time>
      </trkpt>
      <trkpt lat="43.66108" lon="3.3888">
        <ele>159.69768</ele>
        <time>2022-08-06T16:05:37.408Z</time>
      </trkpt>
      <trkpt lat="43.66107" lon="3.38916">
        <ele>161.878399</ele>
        <time>2022-08-06T16:05:55.234Z</time>
      </trkpt>
      <trkpt lat="43.66092" lon="3.38941">
        <ele>163.863412</ele>
        <time>2022-08-06T16:06:12.726Z</time>
      </trkpt>
      <trkpt lat="43.66088" lon="3.38964">
        <ele>165.296646</ele>
        <time>2022-08-06T16:06:24.376Z</time>
      </trkpt>
      <trkpt lat="43.66086" lon="3.39043">
        <ele>170.16068</ele>
        <time>2022-08-06T16:07:12.023Z</time>
      </trkpt>
      <trkpt lat="43.6611" lon="3.39211">
        <ele>183.353802</ele>
        <time>2022-08-06T16:09:06.855Z</time>
      </trkpt>
      <trkpt lat="43.66101" lon="3.39258">
        <ele>187.074064</ele>
        <time>2022-08-06T16:09:34.630Z</time>
      </trkpt>
      <trkpt lat="43.66092" lon="3.3927">
        <ele>188.417753</ele>
        <time>2022-08-06T16:09:43.531Z</time>
      </trkpt>
      <trkpt lat="43.66094" lon="3.39289">
        <ele>189.450201</ele>
        <time>2022-08-06T16:09:53.644Z</time>
      </trkpt>
      <trkpt lat="43.66106" lon="3.39278">
        <ele>190.348296</ele>
        <time>2022-08-06T16:10:03.606Z</time>
      </trkpt>
      <trkpt lat="43.66123" lon="3.39268">
        <ele>191.521495</ele>
        <time>2022-08-06T16:10:15.163Z</time>
      </trkpt>
      <trkpt lat="43.66142" lon="3.39217">
        <ele>194.181309</ele>
        <time>2022-08-06T16:10:43.423Z</time>
      </trkpt>
      <trkpt lat="43.66138" lon="3.39162">
        <ele>196.697964</ele>
        <time>2022-08-06T16:11:10.053Z</time>
      </trkpt>
      <trkpt lat="43.66152" lon="3.39091">
        <ele>200.068167</ele>
        <time>2022-08-06T16:11:37.656Z</time>
      </trkpt>
      <trkpt lat="43.66162" lon="3.39069">
        <ele>201.016786</ele>
        <time>2022-08-06T16:11:46.516Z</time>
      </trkpt>
      <trkpt lat="43.66169" lon="3.39067">
        <ele>201.314789</ele>
        <time>2022-08-06T16:11:50.948Z</time>
      </trkpt>
      <trkpt lat="43.66157" lon="3.39156">
        <ele>204.350196</ele>
        <time>2022-08-06T16:12:25.189Z</time>
      </trkpt>
      <trkpt lat="43.66159" lon="3.39188">
        <ele>205.403877</ele>
        <time>2022-08-06T16:12:38.672Z</time>
      </trkpt>
      <trkpt lat="43.6617" lon="3.39226">
        <ele>206.770236</ele>
        <time>2022-08-06T16:12:56.551Z</time>
      </trkpt>
      <trkpt lat="43.66171" lon="3.39254">
        <ele>207.695217</ele>
        <time>2022-08-06T16:13:08.606Z</time>
      </trkpt>
      <trkpt lat="43.66115" lon="3.39381">
        <ele>211.175323</ele>
        <time>2022-08-06T16:14:04.649Z</time>
      </trkpt>
      <trkpt lat="43.66099" lon="3.39407">
        <ele>211.914542</ele>
        <time>2022-08-06T16:14:15.269Z</time>
      </trkpt>
      <trkpt lat="43.66099" lon="3.39433">
        <ele>212.481349</ele>
        <time>2022-08-06T16:14:23.690Z</time>
      </trkpt>
      <trkpt lat="43.66123" lon="3.3946">
        <ele>213.412842</ele>
        <time>2022-08-06T16:14:36.091Z</time>
      </trkpt>
      <trkpt lat="43.66147" lon="3.39477">
        <ele>213.932838</ele>
        <time>2022-08-06T16:14:45.993Z</time>
      </trkpt>
      <trkpt lat="43.66213" lon="3.39488">
        <ele>214.350499</ele>
        <time>2022-08-06T16:15:09.176Z</time>
      </trkpt>
      <trkpt lat="43.66274" lon="3.39508">
        <ele>214.74495</ele>
        <time>2022-08-06T16:15:30.458Z</time>
      </trkpt>
      <trkpt lat="43.6631" lon="3.39526">
        <ele>214.981147</ele>
        <time>2022-08-06T16:15:43.330Z</time>
      </trkpt>
      <trkpt lat="43.66332" lon="3.39525">
        <ele>214.982574</ele>
        <time>2022-08-06T16:15:50.895Z</time>
      </trkpt>
      <trkpt lat="43.66368" lon="3.39512">
        <ele>214.977131</ele>
        <time>2022-08-06T16:16:03.369Z</time>
      </trkpt>
      <trkpt lat="43.66375" lon="3.39512">
        <ele>214.976054</ele>
        <time>2022-08-06T16:16:05.864Z</time>
      </trkpt>
      <trkpt lat="43.66379" lon="3.39522">
        <ele>214.974901</ele>
        <time>2022-08-06T16:16:08.575Z</time>
      </trkpt>
      <trkpt lat="43.6637" lon="3.39537">
        <ele>214.9728</ele>
        <time>2022-08-06T16:16:13.067Z</time>
      </trkpt>
      <trkpt lat="43.66349" lon="3.39553">
        <ele>214.969217</ele>
        <time>2022-08-06T16:16:20.789Z</time>
      </trkpt>
      <trkpt lat="43.66329" lon="3.39599">
        <ele>214.963531</ele>
        <time>2022-08-06T16:16:32.663Z</time>
      </trkpt>
      <trkpt lat="43.66298" lon="3.39606">
        <ele>214.948723</ele>
        <time>2022-08-06T16:16:42.164Z</time>
      </trkpt>
      <trkpt lat="43.66254" lon="3.39635">
        <ele>214.702395</ele>
        <time>2022-08-06T16:16:56.917Z</time>
      </trkpt>
      <trkpt lat="43.66236" lon="3.39638">
        <ele>214.612039</ele>
        <time>2022-08-06T16:17:02.202Z</time>
      </trkpt>
      <trkpt lat="43.6621" lon="3.39687">
        <ele>214.393105</ele>
        <time>2022-08-06T16:17:15.152Z</time>
      </trkpt>
      <trkpt lat="43.66179" lon="3.39715">
        <ele>214.205809</ele>
        <time>2022-08-06T16:17:26.416Z</time>
      </trkpt>
      <trkpt lat="43.66147" lon="3.39711">
        <ele>214.008746</ele>
        <time>2022-08-06T16:17:36.940Z</time>
      </trkpt>
      <trkpt lat="43.6612" lon="3.39727">
        <ele>213.456035</ele>
        <time>2022-08-06T16:17:47.157Z</time>
      </trkpt>
      <trkpt lat="43.66094" lon="3.39773">
        <ele>212.654072</ele>
        <time>2022-08-06T16:18:00.145Z</time>
      </trkpt>
      <trkpt lat="43.66066" lon="3.3979">
        <ele>212.083376</ele>
        <time>2022-08-06T16:18:10.039Z</time>
      </trkpt>
      <trkpt lat="43.66011" lon="3.39845">
        <ele>210.786158</ele>
        <time>2022-08-06T16:18:28.090Z</time>
      </trkpt>
      <trkpt lat="43.65991" lon="3.39854">
        <ele>209.359285</ele>
        <time>2022-08-06T16:18:32.878Z</time>
      </trkpt>
      <trkpt lat="43.65941" lon="3.3989">
        <ele>204.16809</ele>
        <time>2022-08-06T16:18:45.394Z</time>
      </trkpt>
      <trkpt lat="43.65904" lon="3.39925">
        <ele>199.95041</ele>
        <time>2022-08-06T16:18:54.820Z</time>
      </trkpt>
      <trkpt lat="43.65898" lon="3.39935">
        <ele>199.151291</ele>
        <time>2022-08-06T16:18:56.746Z</time>
      </trkpt>
      <trkpt lat="43.65881" lon="3.39928">
        <ele>197.501243</ele>
        <time>2022-08-06T16:19:00.681Z</time>
      </trkpt>
      <trkpt lat="43.65868" lon="3.39929">
        <ele>196.320582</ele>
        <time>2022-08-06T16:19:03.225Z</time>
      </trkpt>
      <trkpt lat="43.65862" lon="3.39944">
        <ele>195.122968</ele>
        <time>2022-08-06T16:19:06.122Z</time>
      </trkpt>
      <trkpt lat="43.65851" lon="3.39967">
        <ele>193.493279</ele>
        <time>2022-08-06T16:19:10.181Z</time>
      </trkpt>
      <trkpt lat="43.6585" lon="3.40012">
        <ele>191.26281</ele>
        <time>2022-08-06T16:19:17.245Z</time>
      </trkpt>
      <trkpt lat="43.65847" lon="3.40018">
        <ele>190.912722</ele>
        <time>2022-08-06T16:19:20.833Z</time>
      </trkpt>
      <trkpt lat="43.65846" lon="3.4001">
        <ele>190.521217</ele>
        <time>2022-08-06T16:19:24.774Z</time>
      </trkpt>
      <trkpt lat="43.65829" lon="3.40007">
        <ele>189.294542</ele>
        <time>2022-08-06T16:19:37.076Z</time>
      </trkpt>
      <trkpt lat="43.65825" lon="3.39994">
        <ele>188.55776</ele>
        <time>2022-08-06T16:19:44.541Z</time>
      </trkpt>
      <trkpt lat="43.65835" lon="3.39946">
        <ele>186.102189</ele>
        <time>2022-08-06T16:19:52.754Z</time>
      </trkpt>
      <trkpt lat="43.65832" lon="3.39907">
        <ele>184.097314</ele>
        <time>2022-08-06T16:20:00.257Z</time>
      </trkpt>
      <trkpt lat="43.65837" lon="3.39892">
        <ele>183.300378</ele>
        <time>2022-08-06T16:20:02.932Z</time>
      </trkpt>
      <trkpt lat="43.65856" lon="3.39863">
        <ele>181.337795</ele>
        <time>2022-08-06T16:20:11.419Z</time>
      </trkpt>
      <trkpt lat="43.65896" lon="3.3983">
        <ele>178.563207</ele>
        <time>2022-08-06T16:20:22.666Z</time>
      </trkpt>
      <trkpt lat="43.659" lon="3.39824">
        <ele>178.248374</ele>
        <time>2022-08-06T16:20:23.848Z</time>
      </trkpt>
      <trkpt lat="43.65897" lon="3.39817">
        <ele>177.89076</ele>
        <time>2022-08-06T16:20:25.177Z</time>
      </trkpt>
      <trkpt lat="43.65888" lon="3.39815">
        <ele>177.331565</ele>
        <time>2022-08-06T16:20:27.523Z</time>
      </trkpt>
      <trkpt lat="43.65808" lon="3.39848">
        <ele>172.353741</ele>
        <time>2022-08-06T16:20:46.834Z</time>
      </trkpt>
      <trkpt lat="43.65777" lon="3.39883">
        <ele>169.62838</ele>
        <time>2022-08-06T16:20:55.797Z</time>
      </trkpt>
      <trkpt lat="43.6577" lon="3.39869">
        <ele>168.515419</ele>
        <time>2022-08-06T16:20:58.590Z</time>
      </trkpt>
      <trkpt lat="43.65774" lon="3.39822">
        <ele>165.649407</ele>
        <time>2022-08-06T16:21:06.048Z</time>
      </trkpt>
      <trkpt lat="43.6578" lon="3.39805">
        <ele>164.427007</ele>
        <time>2022-08-06T16:21:09.330Z</time>
      </trkpt>
      <trkpt lat="43.65801" lon="3.39774">
        <ele>161.852816</ele>
        <time>2022-08-06T16:21:15.710Z</time>
      </trkpt>
      <trkpt lat="43.65801" lon="3.39762">
        <ele>161.076672</ele>
        <time>2022-08-06T16:21:17.724Z</time>
      </trkpt>
      <trkpt lat="43.65696" lon="3.39795">
        <ele>153.265764</ele>
        <time>2022-08-06T16:21:41.440Z</time>
      </trkpt>
      <trkpt lat="43.65648" lon="3.39817">
        <ele>150.578158</ele>
        <time>2022-08-06T16:21:53.607Z</time>
      </trkpt>
      <trkpt lat="43.65648" lon="3.39824">
        <ele>150.312175</ele>
        <time>2022-08-06T16:21:54.603Z</time>
      </trkpt>
      <trkpt lat="43.65682" lon="3.39876">
        <ele>147.605109</ele>
        <time>2022-08-06T16:22:02.044Z</time>
      </trkpt>
      <trkpt lat="43.65712" lon="3.39968">
        <ele>147.397574</ele>
        <time>2022-08-06T16:22:13.518Z</time>
      </trkpt>
      <trkpt lat="43.65716" lon="3.40034">
        <ele>149.125651</ele>
        <time>2022-08-06T16:22:29.237Z</time>
      </trkpt>
      <trkpt lat="43.65496" lon="3.40348">
        <ele>168.811559</ele>
        <time>2022-08-06T16:25:32.961Z</time>
      </trkpt>
      <trkpt lat="43.65449" lon="3.40285">
        <ele>172.927625</ele>
        <time>2022-08-06T16:26:05.761Z</time>
      </trkpt>
      <trkpt lat="43.65418" lon="3.40256">
        <ele>175.266644</ele>
        <time>2022-08-06T16:26:24.402Z</time>
      </trkpt>
      <trkpt lat="43.65351" lon="3.40214">
        <ele>179.133237</ele>
        <time>2022-08-06T16:26:56.945Z</time>
      </trkpt>
      <trkpt lat="43.65301" lon="3.40199">
        <ele>181.422069</ele>
        <time>2022-08-06T16:27:18.269Z</time>
      </trkpt>
      <trkpt lat="43.65291" lon="3.40192">
        <ele>181.914765</ele>
        <time>2022-08-06T16:27:22.273Z</time>
      </trkpt>
      <trkpt lat="43.65279" lon="3.40171">
        <ele>182.765704</ele>
        <time>2022-08-06T16:27:31.301Z</time>
      </trkpt>
      <trkpt lat="43.65276" lon="3.40153">
        <ele>183.366908</ele>
        <time>2022-08-06T16:27:35.812Z</time>
      </trkpt>
      <trkpt lat="43.65274" lon="3.40123">
        <ele>184.351234</ele>
        <time>2022-08-06T16:27:45.380Z</time>
      </trkpt>
      <trkpt lat="43.65272" lon="3.40094">
        <ele>185.264553</ele>
        <time>2022-08-06T16:27:52.204Z</time>
      </trkpt>
      <trkpt lat="43.65266" lon="3.40073">
        <ele>185.655912</ele>
        <time>2022-08-06T16:27:59.528Z</time>
      </trkpt>
      <trkpt lat="43.6524" lon="3.40029">
        <ele>186.645692</ele>
        <time>2022-08-06T16:28:14.319Z</time>
      </trkpt>
      <trkpt lat="43.65222" lon="3.40008">
        <ele>187.206081</ele>
        <time>2022-08-06T16:28:22.593Z</time>
      </trkpt>
      <trkpt lat="43.65203" lon="3.39995">
        <ele>187.724668</ele>
        <time>2022-08-06T16:28:28.904Z</time>
      </trkpt>
      <trkpt lat="43.65156" lon="3.39985">
        <ele>188.867255</ele>
        <time>2022-08-06T16:28:40.545Z</time>
      </trkpt>
      <trkpt lat="43.65139" lon="3.39975">
        <ele>189.30645</ele>
        <time>2022-08-06T16:28:46.016Z</time>
      </trkpt>
      <trkpt lat="43.65129" lon="3.39957">
        <ele>189.593506</ele>
        <time>2022-08-06T16:28:50.163Z</time>
      </trkpt>
      <trkpt lat="43.65123" lon="3.39933">
        <ele>189.688839</ele>
        <time>2022-08-06T16:28:55.186Z</time>
      </trkpt>
      <trkpt lat="43.65127" lon="3.39898">
        <ele>189.818026</ele>
        <time>2022-08-06T16:29:00.847Z</time>
      </trkpt>
      <trkpt lat="43.65142" lon="3.39867">
        <ele>189.952106</ele>
        <time>2022-08-06T16:29:06.390Z</time>
      </trkpt>
      <trkpt lat="43.65153" lon="3.39826">
        <ele>190.113565</ele>
        <time>2022-08-06T16:29:13.319Z</time>
      </trkpt>
      <trkpt lat="43.65154" lon="3.39795">
        <ele>190.228329</ele>
        <time>2022-08-06T16:29:18.326Z</time>
      </trkpt>
      <trkpt lat="43.6514" lon="3.39572">
        <ele>189.874853</ele>
        <time>2022-08-06T16:29:48.499Z</time>
      </trkpt>
      <trkpt lat="43.6516" lon="3.39454">
        <ele>189.035379</ele>
        <time>2022-08-06T16:30:03.566Z</time>
      </trkpt>
      <trkpt lat="43.65151" lon="3.39352">
        <ele>187.320542</ele>
        <time>2022-08-06T16:30:15.027Z</time>
      </trkpt>
      <trkpt lat="43.65133" lon="3.39235">
        <ele>185.273521</ele>
        <time>2022-08-06T16:30:27.923Z</time>
      </trkpt>
      <trkpt lat="43.65107" lon="3.3916">
        <ele>181.770849</ele>
        <time>2022-08-06T16:30:36.120Z</time>
      </trkpt>
      <trkpt lat="43.65084" lon="3.39119">
        <ele>179.573538</ele>
        <time>2022-08-06T16:30:41.083Z</time>
      </trkpt>
      <trkpt lat="43.65053" lon="3.39087">
        <ele>177.335125</ele>
        <time>2022-08-06T16:30:45.904Z</time>
      </trkpt>
      <trkpt lat="43.65005" lon="3.39065">
        <ele>174.131429</ele>
        <time>2022-08-06T16:30:52.216Z</time>
      </trkpt>
      <trkpt lat="43.6497" lon="3.39063">
        <ele>171.220546</ele>
        <time>2022-08-06T16:30:56.546Z</time>
      </trkpt>
      <trkpt lat="43.64931" lon="3.39072">
        <ele>167.94023</ele>
        <time>2022-08-06T16:31:01.439Z</time>
      </trkpt>
      <trkpt lat="43.64914" lon="3.39046">
        <ele>165.822911</ele>
        <time>2022-08-06T16:31:06.947Z</time>
      </trkpt>
      <trkpt lat="43.64912" lon="3.38975">
        <ele>161.536451</ele>
        <time>2022-08-06T16:31:18.025Z</time>
      </trkpt>
      <trkpt lat="43.64904" lon="3.3895">
        <ele>159.882983</ele>
        <time>2022-08-06T16:31:22.403Z</time>
      </trkpt>
      <trkpt lat="43.64895" lon="3.38946">
        <ele>159.303995</ele>
        <time>2022-08-06T16:31:24.376Z</time>
      </trkpt>
      <trkpt lat="43.64878" lon="3.38919">
        <ele>157.666415</ele>
        <time>2022-08-06T16:31:30.127Z</time>
      </trkpt>
      <trkpt lat="43.64814" lon="3.38872">
        <ele>153.121583</ele>
        <time>2022-08-06T16:31:46.731Z</time>
      </trkpt>
      <trkpt lat="43.64802" lon="3.38856">
        <ele>152.051839</ele>
        <time>2022-08-06T16:31:50.546Z</time>
      </trkpt>
      <trkpt lat="43.64768" lon="3.389">
        <ele>149.085981</ele>
        <time>2022-08-06T16:32:02.148Z</time>
      </trkpt>
      <trkpt lat="43.64754" lon="3.38921">
        <ele>148.188676</ele>
        <time>2022-08-06T16:32:07.206Z</time>
      </trkpt>
      <trkpt lat="43.64743" lon="3.38927">
        <ele>147.889442</ele>
        <time>2022-08-06T16:32:10.058Z</time>
      </trkpt>
      <trkpt lat="43.64714" lon="3.38894">
        <ele>146.905757</ele>
        <time>2022-08-06T16:32:19.471Z</time>
      </trkpt>
      <trkpt lat="43.64709" lon="3.3889">
        <ele>146.739152</ele>
        <time>2022-08-06T16:32:21.304Z</time>
      </trkpt>
      <trkpt lat="43.64684" lon="3.38891">
        <ele>146.080827</ele>
        <time>2022-08-06T16:32:27.495Z</time>
      </trkpt>
      <trkpt lat="43.64652" lon="3.38879">
        <ele>145.225657</ele>
        <time>2022-08-06T16:32:37.126Z</time>
      </trkpt>
      <trkpt lat="43.64557" lon="3.38814">
        <ele>143.355159</ele>
        <time>2022-08-06T16:33:07.670Z</time>
      </trkpt>
      <trkpt lat="43.64546" lon="3.3881">
        <ele>143.265518</ele>
        <time>2022-08-06T16:33:10.927Z</time>
      </trkpt>
      <trkpt lat="43.64542" lon="3.38802">
        <ele>143.208742</ele>
        <time>2022-08-06T16:33:13.002Z</time>
      </trkpt>
      <trkpt lat="43.64511" lon="3.38792">
        <ele>142.95916</ele>
        <time>2022-08-06T16:33:22.245Z</time>
      </trkpt>
      <trkpt lat="43.6447" lon="3.3877">
        <ele>142.606065</ele>
        <time>2022-08-06T16:33:35.559Z</time>
      </trkpt>
      <trkpt lat="43.64446" lon="3.38767">
        <ele>142.413245</ele>
        <time>2022-08-06T16:33:42.922Z</time>
      </trkpt>
      <trkpt lat="43.64405" lon="3.38778">
        <ele>142.494942</ele>
        <time>2022-08-06T16:33:55.825Z</time>
      </trkpt>
      <trkpt lat="43.64358" lon="3.38791">
        <ele>142.761114</ele>
        <time>2022-08-06T16:34:11.457Z</time>
      </trkpt>
      <trkpt lat="43.64348" lon="3.3879">
        <ele>142.814779</ele>
        <time>2022-08-06T16:34:14.885Z</time>
      </trkpt>
      <trkpt lat="43.64338" lon="3.3879">
        <ele>142.868884</ele>
        <time>2022-08-06T16:34:18.413Z</time>
      </trkpt>
      <trkpt lat="43.64339" lon="3.38772">
        <ele>142.93878</ele>
        <time>2022-08-06T16:34:21.429Z</time>
      </trkpt>
      <trkpt lat="43.64334" lon="3.38754">
        <ele>143.016366</ele>
        <time>2022-08-06T16:34:25.077Z</time>
      </trkpt>
      <trkpt lat="43.64295" lon="3.38706">
        <ele>143.304356</ele>
        <time>2022-08-06T16:34:39.124Z</time>
      </trkpt>
      <trkpt lat="43.64247" lon="3.386">
        <ele>143.989661</ele>
        <time>2022-08-06T16:35:00.793Z</time>
      </trkpt>
      <trkpt lat="43.64232" lon="3.38546">
        <ele>144.302027</ele>
        <time>2022-08-06T16:35:10.274Z</time>
      </trkpt>
      <trkpt lat="43.64232" lon="3.38511">
        <ele>144.494973</ele>
        <time>2022-08-06T16:35:16.757Z</time>
      </trkpt>
      <trkpt lat="43.64246" lon="3.38402">
        <ele>144.210116</ele>
        <time>2022-08-06T16:35:31.487Z</time>
      </trkpt>
      <trkpt lat="43.64248" lon="3.38388">
        <ele>144.122748</ele>
        <time>2022-08-06T16:35:33.601Z</time>
      </trkpt>
      <trkpt lat="43.64264" lon="3.38293">
        <ele>143.527941</ele>
        <time>2022-08-06T16:35:45.298Z</time>
      </trkpt>
      <trkpt lat="43.64284" lon="3.38313">
        <ele>143.318892</ele>
        <time>2022-08-06T16:35:52.003Z</time>
      </trkpt>
      <trkpt lat="43.64296" lon="3.38346">
        <ele>143.166023</ele>
        <time>2022-08-06T16:35:59.687Z</time>
      </trkpt>
      <trkpt lat="43.6432" lon="3.38385">
        <ele>143.166023</ele>
        <time>2022-08-06T16:36:10.310Z</time>
      </trkpt>
      <trkpt lat="43.64337" lon="3.38393">
        <ele>143.166023</ele>
        <time>2022-08-06T16:36:15.828Z</time>
      </trkpt>
      <trkpt lat="43.64351" lon="3.3839">
        <ele>143.166023</ele>
        <time>2022-08-06T16:36:19.712Z</time>
      </trkpt>
      <trkpt lat="43.64363" lon="3.38377">
        <ele>143.166023</ele>
        <time>2022-08-06T16:36:23.881Z</time>
      </trkpt>
      <trkpt lat="43.6436" lon="3.38371">
        <ele>143.166023</ele>
        <time>2022-08-06T16:36:25.320Z</time>
      </trkpt>
      <trkpt lat="43.64375" lon="3.38319">
        <ele>143.166023</ele>
        <time>2022-08-06T16:36:34.070Z</time>
      </trkpt>
      <trkpt lat="43.64375" lon="3.38266">
        <ele>143.166023</ele>
        <time>2022-08-06T16:36:43.074Z</time>
      </trkpt>
    </trkseg>
  </trk>
</gpx>